Meteorology homepage Current Weather at the Dr. Eugene Chermack
Surface Weather Station at SUNY Oswego








Pressure, temperature, and humidity data

                                          ---------- 10-meter --------   -------------- 2-meter -----------------
Year    mnth   day  hh    mm     ss       TT TTmax TTmin RH Rhmax RHmin TT TTmax TTmin RH Rhmax RHmin Td Tdmax Tdmin

-sfc pressure --- 10-meter --- -- Visibility--
PP PPmax PPmin Tch Tchmax Tchmin Vis Vismax Vismin Current_weather

-- Ground -- --- Precipitation ----
Tg Tgmax Tgmin Vr_daily Vr_month Vr_year
2018	04	22	16	10	00 	  43.3	  43.6	  42.0	  63.3	 73.6	 41.8	  46.1	  47.1	  45.6	  62.9	  65.6	  40.9	  33.4	  34.9	  23.4	 1019.7	 1020.2	 1019.7	  46.3	  47.3	  43.0	65616	 65617	 65617	Clear	  46.0	  46.1	  43.7	  0.00	  2.05	 11.32	
2018	04	22	16	09	30 	  43.2	  43.6	  42.0	  63.5	 73.6	 41.8	  46.0	  47.1	  45.6	  63.0	  65.6	  40.9	  33.2	  34.9	  23.4	 1019.7	 1020.2	 1019.7	  46.3	  47.3	  42.8	65616	 65617	 65617	Clear	  46.0	  46.1	  43.7	  0.00	  2.05	 11.32	
2018	04	22	16	09	00 	  43.2	  43.6	  42.0	  63.3	 73.6	 41.8	  46.0	  47.1	  45.6	  62.9	  65.6	  40.9	  33.1	  34.9	  23.4	 1019.8	 1020.2	 1019.7	  46.3	  47.3	  42.8	65616	 65617	 65617	Clear	  46.0	  46.1	  43.7	  0.00	  2.05	 11.32	
2018	04	22	16	08	30 	  43.1	  43.6	  42.0	  62.4	 73.6	 41.8	  45.9	  47.1	  45.6	  62.5	  65.6	  40.9	  33.0	  34.9	  23.4	 1019.8	 1020.2	 1019.8	  46.2	  47.3	  42.8	65616	 65617	 65617	Clear	  46.0	  46.1	  43.7	  0.00	  2.05	 11.32	
2018	04	22	16	08	00 	  42.9	  43.6	  42.0	  61.4	 73.6	 41.8	  45.8	  47.1	  45.6	  62.0	  65.6	  40.9	  33.0	  34.9	  23.4	 1019.8	 1020.2	 1019.8	  46.2	  47.3	  42.8	65616	 65617	 65617	Clear	  46.0	  46.1	  43.7	  0.00	  2.05	 11.32	
2018	04	22	16	07	30 	  42.8	  43.6	  42.0	  60.5	 73.6	 41.8	  45.8	  47.1	  45.6	  61.5	  65.6	  40.9	  33.0	  34.9	  23.4	 1019.8	 1020.2	 1019.8	  46.1	  47.3	  42.8	65616	 65617	 65617	Clear	  45.9	  46.1	  43.7	  0.00	  2.05	 11.32	
2018	04	22	16	07	00 	  42.7	  43.6	  42.0	  59.9	 73.6	 41.8	  45.7	  47.1	  45.6	  61.2	  65.6	  40.9	  33.0	  34.9	  23.4	 1019.8	 1020.2	 1019.8	  46.1	  47.3	  42.8	65616	 65617	 65617	Clear	  45.9	  46.1	  43.7	  0.00	  2.05	 11.32	
2018	04	22	16	06	30 	  42.6	  43.6	  42.0	  59.7	 73.6	 41.8	  45.6	  47.1	  45.6	  60.6	  65.6	  40.9	  33.1	  34.9	  23.4	 1019.8	 1020.2	 1019.8	  45.9	  47.3	  42.8	65616	 65617	 65617	Clear	  45.9	  46.1	  43.7	  0.00	  2.05	 11.32	
2018	04	22	16	06	00 	  42.6	  43.6	  42.0	  59.4	 73.6	 41.8	  45.6	  47.1	  45.6	  60.5	  65.6	  40.9	  33.3	  34.9	  23.4	 1019.8	 1020.2	 1019.8	  45.9	  47.3	  42.8	65616	 65617	 65617	Clear	  45.9	  46.1	  43.7	  0.00	  2.05	 11.32	
2018	04	22	16	05	30 	  42.5	  43.6	  42.0	  60.3	 73.6	 41.8	  45.6	  47.1	  45.6	  60.8	  65.6	  40.9	  33.4	  34.9	  23.4	 1019.8	 1020.3	 1019.8	  45.8	  47.3	  42.8	65616	 65617	 65617	Clear	  45.9	  46.1	  43.7	  0.00	  2.05	 11.32	
2018	04	22	16	05	00 	  42.4	  43.6	  42.0	  61.5	 73.6	 41.8	  45.6	  47.1	  45.6	  60.9	  65.6	  40.9	  33.6	  34.9	  23.4	 1019.9	 1020.3	 1019.8	  45.8	  47.3	  42.8	65616	 65617	 65617	Clear	  45.9	  46.1	  43.7	  0.00	  2.05	 11.32	
2018	04	22	16	04	30 	  42.3	  43.6	  42.0	  61.7	 73.6	 41.8	  45.6	  47.1	  45.6	  60.7	  65.6	  40.9	  33.7	  34.9	  23.4	 1019.9	 1020.3	 1019.9	  45.6	  47.3	  42.8	65616	 65617	 65617	Clear	  45.9	  46.1	  43.7	  0.00	  2.05	 11.32	
2018	04	22	16	04	00 	  42.2	  43.6	  42.0	  62.2	 73.6	 41.8	  45.6	  47.1	  45.6	  60.9	  65.6	  40.9	  33.9	  34.9	  23.4	 1019.9	 1020.3	 1019.9	  45.6	  47.3	  42.8	65616	 65617	 65617	Clear	  45.9	  46.1	  43.7	  0.00	  2.05	 11.32	
2018	04	22	16	03	30 	  42.2	  43.6	  42.0	  63.4	 73.6	 41.8	  45.6	  47.1	  45.7	  61.2	  65.6	  40.9	  34.1	  34.9	  23.4	 1019.9	 1020.3	 1019.9	  45.5	  47.3	  42.8	65616	 65617	 65617	Clear	  45.9	  46.1	  43.7	  0.00	  2.05	 11.32	
2018	04	22	16	03	00 	  42.1	  43.6	  42.0	  64.9	 73.6	 41.8	  45.7	  47.1	  45.7	  61.9	  65.6	  40.9	  34.2	  34.9	  23.4	 1019.9	 1020.3	 1019.9	  45.5	  47.3	  42.8	65616	 65617	 65617	Clear	  45.9	  46.1	  43.7	  0.00	  2.05	 11.32	
2018	04	22	16	02	30 	  42.1	  43.6	  42.0	  66.5	 73.6	 41.8	  45.7	  47.1	  45.7	  62.5	  65.6	  40.9	  34.3	  34.9	  23.4	 1019.9	 1020.3	 1019.9	  45.4	  47.3	  42.8	65616	 65617	 65617	Clear	  45.9	  46.1	  43.7	  0.00	  2.05	 11.32	
2018	04	22	16	02	00 	  42.1	  43.6	  42.0	  67.8	 73.6	 41.8	  45.7	  47.1	  45.7	  63.0	  65.6	  40.9	  34.4	  34.9	  23.4	 1019.9	 1020.3	 1019.9	  45.4	  47.3	  42.8	65616	 65617	 65617	Clear	  45.9	  46.1	  43.7	  0.00	  2.05	 11.32	
2018	04	22	16	01	30 	  42.1	  43.6	  42.0	  68.9	 73.6	 41.8	  45.7	  47.1	  45.7	  63.6	  65.6	  40.9	  34.5	  34.9	  23.4	 1019.9	 1020.3	 1019.9	  45.8	  47.3	  42.8	65616	 65617	 65617	Clear	  45.9	  46.1	  43.7	  0.00	  2.05	 11.32	
2018	04	22	16	01	00 	  42.1	  43.6	  42.0	  70.2	 73.6	 41.8	  45.7	  47.1	  45.7	  63.9	  65.6	  40.9	  34.6	  34.9	  23.4	 1019.9	 1020.3	 1019.9	  45.8	  47.3	  42.8	65616	 65617	 65617	Clear	  45.9	  46.1	  43.7	  0.00	  2.05	 11.32	
2018	04	22	16	00	30 	  42.1	  43.6	  42.0	  70.8	 73.6	 41.8	  45.7	  47.1	  45.7	  63.9	  65.6	  40.9	  34.6	  34.9	  23.4	 1020.0	 1020.3	 1019.9	  45.7	  47.3	  42.8	65616	 65617	 65617	Clear	  45.9	  46.1	  43.7	  0.00	  2.05	 11.32	
2018	04	22	16	00	00 	  42.0	  43.6	  42.0	  71.1	 73.6	 41.8	  45.7	  47.1	  45.7	  64.2	  65.6	  40.9	  34.7	  34.9	  23.4	 1020.0	 1020.3	 1019.9	  45.7	  47.3	  42.8	65616	 65617	 65617	Clear	  45.9	  46.1	  43.7	  0.00	  2.05	 11.32	
2018	04	22	15	59	30 	  42.1	  43.6	  42.1	  71.8	 73.6	 41.8	  45.7	  47.1	  45.7	  64.6	  65.6	  40.9	  34.7	  34.9	  23.4	 1020.0	 1020.3	 1019.9	  45.7	  47.3	  42.8	65616	 65617	 65617	Clear	  45.9	  46.1	  43.7	  0.00	  2.05	 11.32	
2018	04	22	15	59	00 	  42.1	  43.6	  42.1	  72.5	 73.6	 41.8	  45.7	  47.1	  45.7	  64.9	  65.6	  40.9	  34.8	  34.9	  23.4	 1020.0	 1020.3	 1019.9	  45.7	  47.3	  42.8	65616	 65617	 65617	Clear	  45.8	  46.1	  43.7	  0.00	  2.05	 11.32	
2018	04	22	15	58	30 	  42.1	  43.6	  42.1	  73.1	 73.6	 41.8	  45.7	  47.1	  45.7	  65.1	  65.6	  40.9	  34.8	  34.9	  23.4	 1020.0	 1020.4	 1019.9	  45.7	  47.3	  42.8	65616	 65617	 65617	Clear	  45.8	  46.1	  43.7	  0.00	  2.05	 11.32	
2018	04	22	15	58	00 	  42.1	  43.6	  42.1	  73.4	 73.6	 41.8	  45.7	  47.1	  45.7	  65.1	  65.6	  40.9	  34.8	  34.9	  23.4	 1020.0	 1020.4	 1019.9	  45.7	  47.3	  42.8	65616	 65617	 65617	Clear	  45.8	  46.1	  43.7	  0.00	  2.05	 11.32	
2018	04	22	15	57	30 	  42.1	  43.6	  42.1	  73.6	 73.6	 41.8	  45.7	  47.1	  45.7	  65.3	  65.6	  40.9	  34.8	  34.9	  23.4	 1020.0	 1020.4	 1019.9	  45.7	  47.3	  42.6	65616	 65617	 65617	Clear	  45.8	  46.1	  43.7	  0.00	  2.05	 11.32	
2018	04	22	15	57	00 	  42.1	  43.6	  42.1	  73.6	 73.6	 41.8	  45.7	  47.1	  45.7	  65.4	  65.6	  40.9	  34.7	  34.9	  23.4	 1020.0	 1020.4	 1019.9	  45.7	  47.3	  42.6	65616	 65617	 65617	Clear	  45.8	  46.1	  43.7	  0.00	  2.05	 11.32	
2018	04	22	15	56	30 	  42.1	  43.6	  42.2	  73.6	 73.6	 41.8	  45.7	  47.1	  45.7	  65.5	  65.6	  40.9	  34.7	  34.9	  23.4	 1020.0	 1020.4	 1019.9	  45.7	  47.3	  42.0	65616	 65617	 65617	Clear	  45.8	  46.1	  43.7	  0.00	  2.05	 11.32	
2018	04	22	15	56	00 	  42.2	  43.6	  42.2	  73.6	 73.6	 41.8	  45.7	  47.1	  45.7	  65.5	  65.6	  40.9	  34.6	  34.9	  23.4	 1020.0	 1020.4	 1019.9	  45.7	  47.3	  42.0	65616	 65617	 65617	Clear	  45.8	  46.1	  43.7	  0.00	  2.05	 11.32	
2018	04	22	15	55	30 	  42.2	  43.6	  42.2	  73.5	 73.2	 41.8	  45.8	  47.1	  45.8	  65.6	  65.5	  40.9	  34.6	  34.9	  23.4	 1020.0	 1020.4	 1019.9	  45.7	  47.3	  42.0	65616	 65617	 65617	Clear	  45.8	  46.1	  43.7	  0.00	  2.05	 11.32	
2018	04	22	15	55	00 	  42.2	  43.6	  42.2	  73.2	 73.2	 41.8	  45.8	  47.1	  45.8	  65.5	  65.5	  40.9	  34.5	  34.9	  23.4	 1020.0	 1020.4	 1019.9	  45.7	  47.3	  42.0	65616	 65617	 65617	Clear	  45.8	  46.1	  43.7	  0.00	  2.05	 11.32	
2018	04	22	15	54	30 	  42.3	  43.6	  42.3	  72.6	 71.8	 41.8	  45.8	  47.1	  45.9	  65.3	  65.1	  40.9	  34.5	  34.9	  23.4	 1020.0	 1020.4	 1019.9	  45.7	  47.3	  42.0	65616	 65617	 65617	Clear	  45.8	  46.1	  43.7	  0.00	  2.05	 11.32	
2018	04	22	15	54	00 	  42.3	  43.6	  42.3	  71.8	 71.8	 41.8	  45.9	  47.1	  45.9	  65.1	  65.1	  40.9	  34.4	  34.9	  23.4	 1020.0	 1020.4	 1019.9	  45.7	  47.3	  42.0	65616	 65617	 65617	Clear	  45.8	  46.1	  43.7	  0.00	  2.05	 11.32	
2018	04	22	15	53	30 	  42.3	  43.6	  42.3	  70.5	 68.7	 41.8	  45.9	  47.1	  45.9	  64.7	  64.6	  40.9	  34.4	  34.9	  23.4	 1020.0	 1020.4	 1019.9	  45.8	  47.3	  42.0	65616	 65617	 65617	Clear	  45.8	  46.1	  43.7	  0.00	  2.05	 11.32	
2018	04	22	15	53	00 	  42.4	  43.6	  42.3	  68.7	 68.7	 41.8	  46.0	  47.1	  45.9	  63.9	  64.6	  40.9	  34.4	  34.9	  23.4	 1020.0	 1020.4	 1019.9	  45.8	  47.3	  42.0	65616	 65617	 65617	Clear	  45.8	  46.1	  43.7	  0.00	  2.05	 11.32	
2018	04	22	15	52	30 	  42.4	  43.6	  42.3	  67.6	 67.2	 41.8	  46.0	  47.1	  45.9	  63.5	  64.6	  40.9	  34.4	  34.9	  23.4	 1020.0	 1020.5	 1019.9	  45.8	  47.3	  42.0	65616	 65617	 65617	Clear	  45.8	  46.1	  43.7	  0.00	  2.05	 11.32	
2018	04	22	15	52	00 	  42.4	  43.6	  42.3	  67.2	 67.2	 41.8	  46.1	  47.1	  45.9	  63.6	  64.6	  40.9	  34.5	  34.9	  23.4	 1020.0	 1020.5	 1019.9	  45.8	  47.3	  42.0	65616	 65617	 65617	Clear	  45.8	  46.1	  43.7	  0.00	  2.05	 11.32	
2018	04	22	15	51	30 	  42.4	  43.6	  42.3	  66.6	 66.8	 41.8	  46.1	  47.1	  45.9	  63.6	  64.6	  40.9	  34.5	  34.9	  23.4	 1020.0	 1020.5	 1019.9	  45.9	  47.3	  42.0	65616	 65617	 65617	Clear	  45.8	  46.1	  43.7	  0.00	  2.05	 11.32	
2018	04	22	15	51	00 	  42.4	  43.6	  42.3	  65.6	 66.8	 41.8	  46.1	  47.1	  45.9	  63.4	  64.6	  40.9	  34.5	  34.9	  23.4	 1020.0	 1020.5	 1019.9	  45.9	  47.3	  42.0	65616	 65617	 65617	Clear	  45.8	  46.1	  43.7	  0.00	  2.05	 11.32	
2018	04	22	15	50	30 	  42.4	  43.6	  42.3	  64.0	 66.8	 41.8	  46.1	  47.1	  45.9	  63.3	  64.6	  40.9	  34.6	  34.9	  23.4	 1020.0	 1020.5	 1019.9	  46.0	  47.3	  42.0	65616	 65617	 65617	Clear	  45.7	  46.1	  43.7	  0.00	  2.05	 11.32	
2018	04	22	15	50	00 	  42.4	  43.6	  42.3	  62.8	 66.8	 41.8	  46.1	  47.1	  45.9	  63.2	  64.6	  40.9	  34.6	  34.9	  23.4	 1020.0	 1020.5	 1019.9	  46.0	  47.3	  42.0	65616	 65617	 65617	Clear	  45.7	  46.1	  43.7	  0.00	  2.05	 11.32	
2018	04	22	15	49	30 	  42.4	  43.6	  42.3	  61.4	 66.8	 41.8	  46.1	  47.1	  45.9	  63.0	  64.6	  40.9	  34.7	  34.9	  23.4	 1020.0	 1020.5	 1019.9	  46.2	  47.3	  42.0	65616	 65617	 65617	Clear	  45.7	  46.1	  43.7	  0.00	  2.05	 11.32	
2018	04	22	15	49	00 	  42.4	  43.6	  42.3	  62.0	 66.8	 41.8	  46.1	  47.1	  45.9	  63.2	  64.6	  40.9	  34.7	  34.9	  23.4	 1019.9	 1020.5	 1019.9	  46.2	  47.3	  42.0	65616	 65617	 65617	Clear	  45.7	  46.1	  43.7	  0.00	  2.05	 11.32	
2018	04	22	15	48	30 	  42.4	  43.6	  42.3	  63.1	 66.8	 41.8	  46.2	  47.1	  45.9	  63.7	  64.6	  40.9	  34.8	  34.9	  23.4	 1019.9	 1020.5	 1019.9	  46.2	  47.3	  42.0	65616	 65617	 65617	Clear	  45.7	  46.1	  43.7	  0.00	  2.05	 11.32	
2018	04	22	15	48	00 	  42.4	  43.6	  42.3	  64.6	 66.8	 41.8	  46.2	  47.1	  45.9	  64.5	  64.6	  40.9	  34.8	  34.9	  23.4	 1019.9	 1020.5	 1019.9	  46.2	  47.3	  42.0	65616	 65617	 65617	Clear	  45.7	  46.1	  43.7	  0.00	  2.05	 11.32	
2018	04	22	15	47	30 	  42.4	  43.6	  42.3	  65.2	 66.8	 41.8	  46.2	  47.1	  45.9	  64.6	  64.2	  40.9	  34.8	  34.9	  23.4	 1019.9	 1020.5	 1019.9	  46.1	  47.3	  42.0	65616	 65617	 65617	Clear	  45.7	  46.1	  43.6	  0.00	  2.05	 11.32	
2018	04	22	15	47	00 	  42.4	  43.6	  42.3	  64.4	 66.8	 41.8	  46.2	  47.1	  45.9	  64.2	  64.2	  40.9	  34.7	  34.9	  23.4	 1019.9	 1020.5	 1019.9	  46.1	  47.3	  42.0	65616	 65617	 65617	Clear	  45.7	  46.1	  43.6	  0.00	  2.05	 11.32	
2018	04	22	15	46	30 	  42.4	  43.6	  42.3	  63.5	 66.8	 41.8	  46.2	  47.1	  45.9	  63.8	  64.0	  40.9	  34.7	  34.9	  23.4	 1019.9	 1020.5	 1019.9	  46.0	  47.3	  42.0	65616	 65617	 65617	Clear	  45.7	  46.1	  43.6	  0.00	  2.05	 11.32	
2018	04	22	15	46	00 	  42.3	  43.6	  42.3	  63.8	 66.8	 41.8	  46.3	  47.1	  45.9	  63.9	  64.0	  40.9	  34.6	  34.9	  23.4	 1019.9	 1020.5	 1019.9	  46.0	  47.3	  42.0	65616	 65617	 65617	Clear	  45.7	  46.1	  43.6	  0.00	  2.05	 11.32	
2018	04	22	15	45	30 	  42.3	  43.6	  42.3	  65.2	 66.8	 41.8	  46.4	  47.1	  45.9	  63.9	  63.7	  40.9	  34.5	  34.9	  23.4	 1019.9	 1020.6	 1019.9	  46.1	  47.3	  42.0	65616	 65617	 65617	Clear	  45.7	  46.1	  43.6	  0.00	  2.05	 11.32	
2018	04	22	15	45	00 	  42.3	  43.6	  42.3	  66.1	 66.8	 41.8	  46.4	  47.1	  45.9	  63.7	  63.7	  40.9	  34.3	  34.9	  23.4	 1019.9	 1020.6	 1019.9	  46.1	  47.3	  42.0	65616	 65617	 65617	Clear	  45.7	  46.1	  43.6	  0.00	  2.05	 11.32	
2018	04	22	15	44	30 	  42.3	  43.6	  42.4	  66.8	 66.1	 41.8	  46.5	  47.1	  45.9	  63.7	  63.6	  40.9	  34.0	  34.9	  23.4	 1019.9	 1020.6	 1019.9	  46.3	  47.3	  41.9	65616	 65617	 65617	Clear	  45.7	  46.1	  43.6	  0.00	  2.05	 11.32	
2018	04	22	15	44	00 	  42.4	  43.6	  42.4	  66.1	 66.1	 41.8	  46.6	  47.1	  45.9	  63.6	  63.6	  40.9	  33.7	  34.9	  23.4	 1019.9	 1020.6	 1019.9	  46.3	  47.3	  41.9	65616	 65617	 65617	Clear	  45.7	  46.1	  43.6	  0.00	  2.05	 11.32	
2018	04	22	15	43	30 	  42.4	  43.6	  42.4	  64.8	 63.6	 41.8	  46.7	  47.1	  45.9	  63.1	  62.5	  40.9	  33.3	  34.6	  23.4	 1020.0	 1020.6	 1019.9	  46.3	  47.3	  41.9	65616	 65617	 65617	Clear	  45.7	  46.1	  43.6	  0.00	  2.05	 11.32	
2018	04	22	15	43	00 	  42.5	  43.6	  42.4	  63.6	 63.6	 41.8	  46.8	  47.1	  45.9	  62.5	  62.5	  40.9	  32.8	  34.6	  23.4	 1020.0	 1020.6	 1019.9	  46.3	  47.3	  41.9	65616	 65617	 65617	Clear	  45.6	  46.1	  43.6	  0.00	  2.05	 11.32	
2018	04	22	15	42	30 	  42.5	  43.6	  42.4	  62.7	 62.7	 41.8	  46.8	  47.1	  45.9	  62.0	  61.7	  40.9	  32.2	  34.4	  23.4	 1020.0	 1020.6	 1020.0	  46.1	  47.3	  41.9	65616	 65617	 65617	Clear	  45.7	  46.1	  43.6	  0.00	  2.05	 11.32	
2018	04	22	15	42	00 	  42.6	  43.6	  42.4	  62.7	 62.7	 41.8	  46.9	  47.1	  45.9	  61.7	  61.7	  40.9	  31.6	  34.4	  23.4	 1020.0	 1020.6	 1020.0	  46.1	  47.3	  41.9	65616	 65617	 65617	Clear	  45.7	  46.1	  43.6	  0.00	  2.05	 11.32	
2018	04	22	15	41	30 	  42.8	  43.6	  42.3	  62.4	 60.9	 41.8	  47.0	  47.1	  45.9	  61.0	  59.8	  40.9	  30.9	  33.8	  23.4	 1020.0	 1020.6	 1020.0	  46.5	  47.3	  41.9	65616	 65617	 65617	Clear	  45.6	  46.1	  43.6	  0.00	  2.05	 11.32	
2018	04	22	15	41	00 	  42.9	  43.6	  42.3	  60.9	 60.9	 41.8	  47.1	  47.1	  45.9	  59.8	  59.8	  40.9	  30.2	  33.8	  23.4	 1020.0	 1020.6	 1020.0	  46.5	  47.3	  41.9	65616	 65617	 65617	Clear	  45.6	  46.1	  43.6	  0.00	  2.05	 11.32	
2018	04	22	15	40	30 	  43.0	  43.6	  42.3	  59.1	 57.3	 41.8	  47.1	  47.1	  45.9	  58.3	  56.9	  40.9	  29.5	  32.6	  23.4	 1020.0	 1020.6	 1020.0	  47.1	  47.3	  41.9	65616	 65617	 65617	Clear	  45.6	  46.1	  43.6	  0.00	  2.05	 11.32	
2018	04	22	15	40	00 	  43.1	  43.6	  42.3	  57.3	 57.3	 41.8	  47.1	  47.1	  45.9	  56.9	  56.9	  40.9	  28.8	  32.6	  23.4	 1020.0	 1020.6	 1020.0	  47.1	  47.3	  41.9	65616	 65617	 65617	Clear	  45.6	  46.1	  43.6	  0.00	  2.05	 11.32	
2018	04	22	15	39	30 	  43.2	  43.6	  42.3	  55.4	 57.0	 41.8	  47.1	  47.1	  45.9	  55.1	  56.5	  40.9	  28.2	  31.7	  23.4	 1020.0	 1020.6	 1020.0	  47.0	  47.3	  41.9	65616	 65617	 65617	Clear	  45.6	  46.1	  43.6	  0.00	  2.05	 11.32	
2018	04	22	15	39	00 	  43.3	  43.6	  42.3	  54.1	 57.0	 41.8	  47.1	  47.1	  45.9	  53.6	  56.5	  40.9	  27.6	  31.7	  23.4	 1020.0	 1020.6	 1020.0	  47.0	  47.3	  41.9	65616	 65617	 65617	Clear	  45.6	  46.1	  43.6	  0.00	  2.05	 11.32	
2018	04	22	15	38	30 	  43.4	  43.6	  42.3	  52.6	 57.2	 41.8	  47.1	  47.1	  45.9	  51.7	  56.5	  40.9	  27.1	  31.7	  23.4	 1020.0	 1020.6	 1020.0	  47.1	  47.3	  41.9	65616	 65617	 65617	Clear	  45.6	  46.1	  43.6	  0.00	  2.05	 11.32	
2018	04	22	15	38	00 	  43.4	  43.6	  42.3	  51.3	 57.2	 41.8	  47.1	  47.1	  45.9	  50.1	  56.5	  40.9	  26.7	  31.7	  23.4	 1020.0	 1020.6	 1020.0	  47.1	  47.3	  41.9	65616	 65617	 65617	Clear	  45.6	  46.1	  43.6	  0.00	  2.05	 11.32	
2018	04	22	15	37	30 	  43.5	  43.6	  42.2	  49.9	 57.8	 41.8	  47.1	  47.1	  45.9	  48.5	  56.5	  40.9	  26.3	  31.7	  23.4	 1020.0	 1020.6	 1020.0	  47.2	  47.3	  41.9	65616	 65617	 65617	Clear	  45.6	  46.1	  43.5	  0.00	  2.05	 11.32	
2018	04	22	15	37	00 	  43.5	  43.6	  42.2	  48.2	 57.8	 41.8	  47.1	  47.1	  45.9	  46.9	  56.5	  40.9	  26.0	  31.7	  23.4	 1020.0	 1020.6	 1020.0	  47.2	  47.3	  41.9	65616	 65617	 65617	Clear	  45.6	  46.1	  43.5	  0.00	  2.05	 11.32	
2018	04	22	15	36	30 	  43.6	  43.6	  42.2	  47.1	 58.5	 41.8	  47.1	  47.0	  45.9	  45.9	  56.5	  40.9	  25.8	  31.7	  23.4	 1020.0	 1020.6	 1020.0	  47.3	  47.3	  41.9	65616	 65617	 65617	Clear	  45.6	  46.1	  43.5	  0.00	  2.05	 11.32	
2018	04	22	15	36	00 	  43.6	  43.6	  42.2	  46.6	 58.5	 41.8	  47.0	  47.0	  45.9	  45.0	  56.5	  40.9	  25.6	  31.7	  23.4	 1020.0	 1020.6	 1020.0	  47.3	  47.3	  41.9	65616	 65617	 65617	Clear	  45.6	  46.1	  43.5	  0.00	  2.05	 11.32	
2018	04	22	15	35	30 	  43.6	  43.6	  42.2	  46.0	 58.8	 41.8	  47.0	  46.9	  45.9	  44.5	  56.5	  40.9	  25.5	  31.7	  23.4	 1020.0	 1020.6	 1020.0	  47.2	  47.2	  41.9	65616	 65617	 65617	Clear	  45.6	  46.1	  43.5	  0.00	  2.05	 11.32	
2018	04	22	15	35	00 	  43.6	  43.6	  42.2	  45.4	 58.8	 41.8	  46.9	  46.9	  45.9	  43.9	  56.5	  40.9	  25.4	  31.7	  23.4	 1020.1	 1020.6	 1020.0	  47.2	  47.2	  41.9	65616	 65617	 65617	Clear	  45.6	  46.1	  43.5	  0.00	  2.05	 11.32	
2018	04	22	15	34	30 	  43.6	  43.6	  42.2	  44.7	 59.8	 41.8	  46.9	  46.8	  45.9	  43.2	  56.5	  40.9	  25.3	  31.7	  23.4	 1020.1	 1020.6	 1020.0	  46.9	  46.9	  41.9	65616	 65617	 65617	Clear	  45.6	  46.1	  43.5	  0.00	  2.05	 11.32	
2018	04	22	15	34	00 	  43.6	  43.6	  42.2	  44.4	 59.8	 41.8	  46.8	  46.8	  45.9	  42.9	  56.5	  40.9	  25.2	  31.7	  23.4	 1020.1	 1020.6	 1020.0	  46.9	  46.9	  41.9	65616	 65617	 65617	Clear	  45.6	  46.1	  43.5	  0.00	  2.05	 11.32	
2018	04	22	15	33	30 	  43.6	  43.6	  42.2	  44.1	 60.1	 41.8	  46.8	  46.8	  45.9	  43.0	  56.8	  40.9	  25.2	  31.7	  23.4	 1020.1	 1020.6	 1020.0	  46.2	  46.7	  41.9	65616	 65617	 65617	Clear	  45.5	  46.1	  43.5	  0.00	  2.05	 11.32	
2018	04	22	15	33	00 	  43.6	  43.6	  42.2	  44.0	 60.1	 41.8	  46.8	  46.8	  45.9	  43.1	  56.8	  40.9	  25.1	  31.7	  23.4	 1020.1	 1020.6	 1020.0	  46.2	  46.7	  41.9	65616	 65617	 65617	Clear	  45.5	  46.1	  43.5	  0.00	  2.05	 11.32	
2018	04	22	15	32	30 	  43.6	  43.6	  42.2	  43.8	 60.4	 41.8	  46.7	  46.8	  45.9	  43.1	  56.9	  40.9	  25.0	  31.7	  23.4	 1020.1	 1020.6	 1020.0	  46.7	  46.7	  41.9	65616	 65617	 65617	Clear	  45.5	  46.1	  43.5	  0.00	  2.05	 11.32	
2018	04	22	15	32	00 	  43.6	  43.6	  42.2	  43.7	 60.4	 41.8	  46.7	  46.8	  45.9	  43.1	  56.9	  40.9	  25.0	  31.7	  23.4	 1020.1	 1020.6	 1020.0	  46.7	  46.7	  41.9	65616	 65617	 65617	Clear	  45.5	  46.1	  43.5	  0.00	  2.05	 11.32	
2018	04	22	15	31	30 	  43.5	  43.6	  42.1	  43.5	 60.6	 41.8	  46.6	  46.8	  45.9	  42.9	  57.2	  40.9	  24.9	  31.7	  23.4	 1020.1	 1020.6	 1020.0	  46.1	  46.1	  41.9	65616	 65617	 65617	Clear	  45.5	  46.1	  43.5	  0.00	  2.05	 11.32	
2018	04	22	15	31	00 	  43.5	  43.6	  42.1	  43.3	 60.6	 41.8	  46.6	  46.8	  45.9	  42.7	  57.2	  40.9	  24.8	  31.7	  23.4	 1020.1	 1020.6	 1020.0	  46.1	  46.1	  41.9	65616	 65617	 65617	Clear	  45.5	  46.1	  43.5	  0.00	  2.05	 11.32	
2018	04	22	15	30	30 	  43.5	  43.6	  42.0	  43.0	 61.4	 41.8	  46.6	  46.8	  45.9	  42.4	  57.6	  40.9	  24.8	  31.8	  23.4	 1020.1	 1020.6	 1020.0	  45.2	  46.1	  41.9	65616	 65617	 65617	Clear	  45.5	  46.1	  43.5	  0.00	  2.05	 11.32	
2018	04	22	15	30	00 	  43.5	  43.6	  42.0	  42.8	 61.4	 41.8	  46.6	  46.8	  45.9	  42.3	  57.6	  40.9	  24.7	  31.8	  23.4	 1020.1	 1020.6	 1020.0	  45.2	  46.1	  41.9	65616	 65617	 65617	Clear	  45.5	  46.1	  43.5	  0.00	  2.05	 11.32	
2018	04	22	15	29	30 	  43.5	  43.6	  42.0	  42.7	 61.5	 41.8	  46.6	  46.8	  45.8	  42.6	  58.1	  40.9	  24.7	  31.9	  23.4	 1020.1	 1020.6	 1020.0	  45.1	  46.1	  41.9	65616	 65617	 65617	Clear	  45.5	  46.1	  43.5	  0.00	  2.05	 11.32	
2018	04	22	15	29	00 	  43.5	  43.6	  42.0	  42.6	 61.5	 41.8	  46.5	  46.8	  45.8	  42.7	  58.1	  40.9	  24.6	  31.9	  23.4	 1020.1	 1020.6	 1020.0	  45.1	  46.1	  41.9	65616	 65617	 65617	Clear	  45.5	  46.1	  43.5	  0.00	  2.05	 11.32	
2018	04	22	15	28	30 	  43.5	  43.6	  41.9	  42.5	 61.5	 41.8	  46.5	  46.8	  45.8	  42.7	  58.2	  40.9	  24.5	  31.9	  23.4	 1020.1	 1020.6	 1020.0	  44.9	  46.1	  41.9	65616	 65617	 65617	Clear	  45.5	  46.1	  43.5	  0.00	  2.05	 11.32	
2018	04	22	15	28	00 	  43.5	  43.6	  41.9	  42.2	 61.5	 41.8	  46.4	  46.8	  45.8	  42.6	  58.2	  40.9	  24.5	  31.9	  23.4	 1020.1	 1020.6	 1020.0	  44.9	  46.1	  41.9	65616	 65617	 65617	Clear	  45.5	  46.1	  43.5	  0.00	  2.05	 11.32	
2018	04	22	15	27	30 	  43.5	  43.6	  41.9	  42.1	 61.8	 41.8	  46.4	  46.8	  45.8	  42.4	  59.1	  40.9	  24.5	  32.3	  23.4	 1020.1	 1020.6	 1020.0	  44.5	  46.1	  41.9	65616	 65617	 65617	Clear	  45.5	  46.1	  43.4	  0.00	  2.05	 11.32	
2018	04	22	15	27	00 	  43.5	  43.6	  41.9	  42.1	 61.8	 41.8	  46.3	  46.8	  45.8	  42.3	  59.1	  40.9	  24.5	  32.3	  23.4	 1020.1	 1020.6	 1020.0	  44.5	  46.1	  41.9	65616	 65617	 65617	Clear	  45.5	  46.1	  43.4	  0.00	  2.05	 11.32	
2018	04	22	15	26	30 	  43.5	  43.6	  41.9	  42.0	 61.9	 41.8	  46.3	  46.8	  45.7	  42.0	  59.2	  40.9	  24.5	  32.3	  23.4	 1020.1	 1020.6	 1020.0	  44.6	  46.1	  41.9	65616	 65617	 65617	Clear	  45.5	  46.1	  43.4	  0.00	  2.05	 11.32	
2018	04	22	15	26	00 	  43.4	  43.6	  41.9	  42.0	 61.9	 41.8	  46.3	  46.8	  45.7	  42.1	  59.2	  40.9	  24.5	  32.3	  23.4	 1020.1	 1020.6	 1020.0	  44.6	  46.1	  41.9	65616	 65617	 65617	Clear	  45.5	  46.1	  43.4	  0.00	  2.05	 11.32	
2018	04	22	15	25	30 	  43.4	  43.6	  41.9	  42.1	 61.9	 41.8	  46.3	  46.8	  45.6	  42.2	  59.2	  40.9	  24.5	  32.3	  23.4	 1020.1	 1020.6	 1020.0	  44.4	  46.1	  41.9	65616	 65617	 65617	Clear	  45.4	  46.1	  43.4	  0.00	  2.05	 11.32	
2018	04	22	15	25	00 	  43.4	  43.6	  41.9	  42.4	 61.9	 41.8	  46.3	  46.8	  45.6	  42.2	  59.2	  40.9	  24.5	  32.3	  23.4	 1020.1	 1020.6	 1020.0	  44.4	  46.1	  41.9	65616	 65617	 65617	Clear	  45.4	  46.1	  43.4	  0.00	  2.05	 11.32	
2018	04	22	15	24	30 	  43.4	  43.6	  41.8	  42.7	 61.9	 41.8	  46.3	  46.8	  45.6	  42.0	  59.2	  40.9	  24.5	  32.3	  23.4	 1020.1	 1020.6	 1020.0	  43.5	  46.1	  41.9	65616	 65617	 65617	Clear	  45.4	  46.1	  43.4	  0.00	  2.05	 11.32	
2018	04	22	15	24	00 	  43.5	  43.6	  41.8	  42.7	 61.9	 41.8	  46.3	  46.8	  45.6	  41.8	  59.2	  40.9	  24.5	  32.3	  23.4	 1020.1	 1020.6	 1020.0	  43.5	  46.1	  41.9	65616	 65617	 65617	Clear	  45.4	  46.1	  43.4	  0.00	  2.05	 11.32	
2018	04	22	15	23	30 	  43.5	  43.6	  41.8	  42.8	 62.0	 41.8	  46.4	  46.8	  45.5	  41.7	  59.2	  40.9	  24.5	  32.3	  23.4	 1020.1	 1020.6	 1020.0	  43.7	  46.1	  41.9	65616	 65617	 65617	Clear	  45.4	  46.1	  43.4	  0.00	  2.05	 11.32	
2018	04	22	15	23	00 	  43.5	  43.6	  41.8	  42.9	 62.0	 41.8	  46.4	  46.8	  45.5	  41.7	  59.2	  40.9	  24.5	  32.3	  23.4	 1020.1	 1020.6	 1020.0	  43.7	  46.1	  41.9	65616	 65617	 65617	Clear	  45.4	  46.1	  43.4	  0.00	  2.05	 11.32	
2018	04	22	15	22	30 	  43.5	  43.6	  41.7	  42.9	 62.0	 41.8	  46.5	  46.8	  45.4	  41.9	  59.2	  40.9	  24.5	  32.3	  23.4	 1020.1	 1020.6	 1020.0	  43.9	  46.1	  41.9	65616	 65617	 65617	Clear	  45.4	  46.1	  43.4	  0.00	  2.05	 11.32	
2018	04	22	15	22	00 	  43.6	  43.6	  41.7	  43.0	 62.0	 41.8	  46.5	  46.8	  45.4	  42.1	  59.2	  40.9	  24.4	  32.3	  23.4	 1020.1	 1020.6	 1020.0	  43.9	  46.1	  41.9	65616	 65617	 65617	Clear	  45.4	  46.1	  43.4	  0.00	  2.05	 11.32	
2018	04	22	15	21	30 	  43.6	  43.6	  41.7	  43.1	 62.0	 41.8	  46.5	  46.8	  45.4	  42.2	  59.2	  40.9	  24.3	  32.3	  23.4	 1020.1	 1020.7	 1020.1	  44.5	  46.1	  41.9	65616	 65617	 65617	Clear	  45.4	  46.1	  43.4	  0.00	  2.05	 11.32	
2018	04	22	15	21	00 	  43.6	  43.6	  41.7	  43.1	 62.0	 41.8	  46.5	  46.8	  45.4	  42.2	  59.2	  40.9	  24.2	  32.3	  23.4	 1020.1	 1020.7	 1020.1	  44.5	  46.1	  41.9	65616	 65617	 65617	Clear	  45.4	  46.1	  43.4	  0.00	  2.05	 11.32	
2018	04	22	15	20	30 	  43.6	  43.6	  41.6	  43.0	 62.8	 41.8	  46.5	  46.8	  45.4	  42.2	  59.2	  40.9	  24.1	  32.3	  23.4	 1020.1	 1020.7	 1020.1	  45.4	  46.1	  41.9	65616	 65617	 65617	Clear	  45.4	  46.1	  43.4	  0.00	  2.05	 11.32	
2018	04	22	15	20	00 	  43.6	  43.6	  41.6	  42.7	 62.8	 41.8	  46.4	  46.8	  45.4	  42.1	  59.2	  40.9	  24.0	  32.3	  23.4	 1020.1	 1020.7	 1020.1	  45.4	  46.1	  41.9	65616	 65617	 65617	Clear	  45.4	  46.1	  43.4	  0.00	  2.05	 11.32	
2018	04	22	15	19	30 	  43.6	  43.5	  41.6	  42.4	 63.9	 41.8	  46.3	  46.8	  45.4	  42.0	  59.8	  40.9	  23.9	  32.4	  23.4	 1020.1	 1020.7	 1020.1	  44.4	  46.1	  41.9	65616	 65617	 65617	Clear	  45.4	  46.1	  43.4	  0.00	  2.05	 11.32	
2018	04	22	15	19	00 	  43.5	  43.5	  41.6	  42.3	 63.9	 41.8	  46.3	  46.8	  45.4	  42.0	  59.8	  40.9	  23.8	  32.4	  23.4	 1020.1	 1020.7	 1020.1	  44.4	  46.1	  41.9	65616	 65617	 65617	Clear	  45.4	  46.1	  43.4	  0.00	  2.05	 11.32	
2018	04	22	15	18	30 	  43.5	  43.5	  41.6	  42.2	 64.6	 41.8	  46.2	  46.8	  45.4	  41.8	  60.0	  40.9	  23.7	  32.6	  23.4	 1020.1	 1020.7	 1020.1	  44.2	  46.1	  41.9	65616	 65617	 65617	Clear	  45.4	  46.1	  43.4	  0.00	  2.05	 11.32	
2018	04	22	15	18	00 	  43.5	  43.5	  41.6	  42.0	 64.6	 41.8	  46.1	  46.8	  45.4	  41.7	  60.0	  40.9	  23.7	  32.6	  23.4	 1020.1	 1020.7	 1020.1	  44.2	  46.1	  41.9	65616	 65617	 65617	Clear	  45.4	  46.1	  43.4	  0.00	  2.05	 11.32	
2018	04	22	15	17	30 	  43.5	  43.5	  41.6	  42.1	 65.2	 41.8	  46.1	  46.8	  45.4	  41.5	  60.5	  40.9	  23.6	  32.7	  23.4	 1020.1	 1020.7	 1020.1	  43.7	  46.1	  41.9	65616	 65617	 65617	Clear	  45.4	  46.1	  43.3	  0.00	  2.05	 11.32	
2018	04	22	15	17	00 	  43.5	  43.5	  41.6	  41.9	 65.2	 41.8	  46.1	  46.8	  45.4	  41.3	  60.5	  40.9	  23.6	  32.7	  23.4	 1020.2	 1020.7	 1020.1	  43.7	  46.1	  41.9	65616	 65617	 65617	Clear	  45.4	  46.1	  43.3	  0.00	  2.05	 11.32	
2018	04	22	15	16	30 	  43.5	  43.5	  41.6	  41.8	 65.8	 41.8	  46.0	  46.8	  45.4	  41.2	  60.7	  40.9	  23.6	  32.7	  23.4	 1020.2	 1020.7	 1020.2	  43.4	  46.1	  41.9	65616	 65617	 65617	Clear	  45.4	  46.1	  43.3	  0.00	  2.05	 11.32	
2018	04	22	15	16	00 	  43.5	  43.5	  41.6	  41.8	 65.8	 41.8	  46.0	  46.8	  45.4	  41.2	  60.7	  40.9	  23.6	  32.7	  23.4	 1020.2	 1020.7	 1020.2	  43.4	  46.1	  41.9	65616	 65617	 65617	Clear	  45.3	  46.1	  43.3	  0.00	  2.05	 11.32	
2018	04	22	15	15	30 	  43.5	  43.5	  41.6	  41.8	 65.8	 41.8	  46.0	  46.8	  45.4	  41.1	  61.0	  40.9	  23.7	  32.8	  23.4	 1020.2	 1020.7	 1020.2	  43.3	  46.1	  41.9	65616	 65617	 65617	Clear	  45.3	  46.1	  43.3	  0.00	  2.05	 11.32	
2018	04	22	15	15	00 	  43.5	  43.5	  41.6	  41.9	 65.8	 41.8	  45.9	  46.8	  45.4	  41.0	  61.0	  40.9	  23.7	  32.8	  23.4	 1020.2	 1020.7	 1020.2	  43.3	  46.1	  41.9	65616	 65617	 65617	Clear	  45.3	  46.1	  43.3	  0.00	  2.05	 11.32	
2018	04	22	15	14	30 	  43.5	  43.5	  41.6	  41.9	 66.0	 41.9	  45.9	  46.8	  45.4	  40.9	  61.0	  40.9	  23.9	  32.8	  23.5	 1020.2	 1020.7	 1020.2	  43.0	  46.1	  41.9	65616	 65617	 65617	Clear	  45.3	  46.1	  43.3	  0.00	  2.05	 11.32	
2018	04	22	15	14	00 	  43.5	  43.5	  41.6	  41.9	 66.0	 41.9	  45.9	  46.8	  45.4	  40.9	  61.0	  40.9	  24.0	  32.8	  23.5	 1020.2	 1020.7	 1020.2	  43.0	  46.1	  41.9	65616	 65617	 65617	Clear	  45.3	  46.1	  43.3	  0.00	  2.05	 11.32	
2018	04	22	15	13	30 	  43.5	  43.5	  41.6	  42.1	 66.0	 42.3	  46.0	  46.8	  45.4	  41.1	  61.0	  41.1	  24.2	  32.8	  23.7	 1020.2	 1020.7	 1020.2	  43.3	  46.1	  41.9	65616	 65617	 65617	Clear	  45.3	  46.1	  43.3	  0.00	  2.05	 11.32	
2018	04	22	15	13	00 	  43.5	  43.5	  41.6	  42.3	 66.0	 42.3	  46.0	  46.8	  45.4	  41.1	  61.0	  41.1	  24.4	  32.8	  23.7	 1020.2	 1020.7	 1020.2	  43.3	  46.1	  41.9	65616	 65617	 65617	Clear	  45.3	  46.1	  43.3	  0.00	  2.05	 11.32	
2018	04	22	15	12	30 	  43.5	  43.4	  41.6	  42.4	 66.0	 42.4	  46.0	  46.8	  45.4	  41.3	  61.0	  41.2	  24.7	  32.8	  23.8	 1020.2	 1020.7	 1020.2	  43.1	  46.1	  41.9	65616	 65617	 65617	Clear	  45.3	  46.1	  43.3	  0.00	  2.05	 11.32	
2018	04	22	15	12	00 	  43.4	  43.4	  41.6	  42.5	 66.0	 42.4	  46.1	  46.8	  45.4	  41.3	  61.0	  41.2	  24.9	  32.8	  23.8	 1020.2	 1020.7	 1020.2	  43.1	  46.1	  41.9	65616	 65617	 65617	Clear	  45.3	  46.1	  43.3	  0.00	  2.05	 11.32	
2018	04	22	15	11	30 	  43.4	  43.4	  41.6	  42.5	 66.9	 42.4	  46.1	  46.8	  45.4	  41.2	  61.4	  41.2	  25.2	  32.9	  23.9	 1020.2	 1020.7	 1020.2	  43.0	  46.1	  41.9	65616	 65617	 65617	Clear	  45.3	  46.1	  43.3	  0.00	  2.05	 11.32	
2018	04	22	15	11	00 	  43.4	  43.4	  41.6	  42.4	 66.9	 42.4	  46.2	  46.8	  45.4	  41.2	  61.4	  41.2	  25.5	  32.9	  23.9	 1020.2	 1020.7	 1020.2	  43.0	  46.1	  41.9	65616	 65617	 65617	Clear	  45.3	  46.1	  43.3	  0.00	  2.05	 11.32	
2018	04	22	15	10	30 	  43.3	  43.3	  41.5	  42.5	 67.4	 42.7	  46.3	  46.8	  45.3	  41.3	  61.7	  41.5	  25.7	  33.0	  24.3	 1020.2	 1020.7	 1020.2	  42.8	  46.1	  41.9	65616	 65617	 65617	Clear	  45.3	  46.1	  43.3	  0.00	  2.05	 11.32	
2018	04	22	15	10	00 	  43.3	  43.3	  41.5	  42.7	 67.4	 42.7	  46.4	  46.8	  45.3	  41.5	  61.7	  41.5	  26.0	  33.0	  24.3	 1020.2	 1020.7	 1020.2	  42.8	  46.1	  41.9	65616	 65617	 65617	Clear	  45.3	  46.1	  43.3	  0.00	  2.05	 11.32	
2018	04	22	15	09	30 	  43.3	  43.3	  41.4	  43.1	 67.5	 43.4	  46.6	  46.8	  45.3	  42.4	  62.2	  43.0	  26.3	  33.1	  25.3	 1020.2	 1020.7	 1020.2	  43.4	  46.1	  41.9	65616	 65617	 65617	Clear	  45.3	  46.1	  43.3	  0.00	  2.05	 11.32	
2018	04	22	15	09	00 	  43.3	  43.3	  41.4	  43.4	 67.5	 43.4	  46.6	  46.8	  45.3	  43.0	  62.2	  43.0	  26.4	  33.1	  25.3	 1020.2	 1020.7	 1020.2	  43.4	  46.1	  41.9	65616	 65617	 65617	Clear	  45.3	  46.1	  43.3	  0.00	  2.05	 11.32	
2018	04	22	15	08	30 	  43.3	  43.2	  41.3	  43.7	 69.0	 44.0	  46.7	  46.8	  45.2	  43.5	  62.8	  44.0	  26.5	  33.4	  26.0	 1020.2	 1020.7	 1020.2	  43.1	  46.1	  41.9	65616	 65617	 65617	Clear	  45.3	  46.1	  43.3	  0.00	  2.05	 11.32	
2018	04	22	15	08	00 	  43.2	  43.2	  41.3	  44.0	 69.0	 44.0	  46.7	  46.8	  45.2	  44.0	  62.8	  44.0	  26.6	  33.4	  26.0	 1020.2	 1020.7	 1020.2	  43.1	  46.1	  41.9	65616	 65617	 65617	Clear	  45.3	  46.1	  43.3	  0.00	  2.05	 11.32	
2018	04	22	15	07	30 	  43.2	  43.2	  41.3	  44.3	 70.6	 44.6	  46.7	  46.8	  45.2	  44.4	  63.8	  44.7	  26.6	  33.7	  26.1	 1020.2	 1020.8	 1020.2	  42.8	  46.1	  41.9	65616	 65617	 65617	Clear	  45.3	  46.1	  43.2	  0.00	  2.05	 11.32	
2018	04	22	15	07	00 	  43.2	  43.2	  41.3	  44.6	 70.6	 44.6	  46.8	  46.8	  45.2	  44.7	  63.8	  44.7	  26.6	  33.7	  26.1	 1020.2	 1020.8	 1020.2	  42.8	  46.1	  41.9	65616	 65617	 65617	Clear	  45.2	  46.1	  43.2	  0.00	  2.05	 11.32	
2018	04	22	15	06	30 	  43.2	  43.2	  41.2	  44.8	 71.1	 44.9	  46.8	  46.8	  45.1	  45.0	  64.3	  45.0	  26.6	  33.8	  26.1	 1020.2	 1020.8	 1020.2	  43.2	  46.1	  41.9	65616	 65617	 65617	Clear	  45.2	  46.1	  43.2	  0.00	  2.05	 11.32	
2018	04	22	15	06	00 	  43.2	  43.2	  41.2	  44.9	 71.1	 44.9	  46.8	  46.8	  45.1	  45.4	  64.3	  45.0	  26.5	  33.8	  26.1	 1020.2	 1020.8	 1020.2	  43.2	  46.1	  41.9	65616	 65617	 65617	Clear	  45.2	  46.1	  43.2	  0.00	  2.05	 11.32	
2018	04	22	15	05	30 	  43.2	  43.2	  41.1	  45.1	 72.2	 44.9	  46.7	  46.7	  45.0	  45.8	  65.2	  45.0	  26.5	  34.1	  26.1	 1020.2	 1020.8	 1020.2	  43.6	  46.1	  41.9	65616	 65617	 65617	Clear	  45.2	  46.1	  43.2	  0.00	  2.05	 11.32	
2018	04	22	15	05	00 	  43.2	  43.2	  41.1	  45.4	 72.2	 44.9	  46.7	  46.7	  45.0	  46.1	  65.2	  45.0	  26.4	  34.1	  26.1	 1020.2	 1020.8	 1020.2	  43.6	  46.1	  41.9	65616	 65617	 65617	Clear	  45.2	  46.1	  43.2	  0.00	  2.05	 11.32	
2018	04	22	15	04	30 	  43.2	  43.2	  41.1	  45.4	 73.5	 44.9	  46.6	  46.6	  45.0	  45.8	  65.8	  45.0	  26.3	  34.2	  26.1	 1020.2	 1020.8	 1020.2	  43.5	  46.1	  41.9	65616	 65617	 65617	Clear	  45.2	  46.1	  43.2	  0.00	  2.05	 11.32	
2018	04	22	15	04	00 	  43.2	  43.2	  41.1	  45.3	 73.5	 44.9	  46.6	  46.6	  45.0	  45.4	  65.8	  45.0	  26.2	  34.2	  26.1	 1020.3	 1020.8	 1020.2	  43.5	  46.1	  41.9	65616	 65617	 65617	Clear	  45.2	  46.1	  43.2	  0.00	  2.05	 11.32	
2018	04	22	15	03	30 	  43.2	  43.1	  41.0	  45.4	 73.5	 44.9	  46.6	  46.6	  44.9	  45.2	  65.9	  45.0	  26.2	  34.2	  26.1	 1020.3	 1020.8	 1020.3	  43.0	  46.1	  41.9	65616	 65617	 65617	Clear	  45.2	  46.1	  43.2	  0.00	  2.05	 11.32	
2018	04	22	15	03	00 	  43.1	  43.1	  41.0	  45.4	 73.5	 44.9	  46.6	  46.6	  44.9	  45.0	  65.9	  45.0	  26.2	  34.2	  26.1	 1020.3	 1020.8	 1020.3	  43.0	  46.1	  41.9	65616	 65617	 65617	Clear	  45.2	  46.1	  43.2	  0.00	  2.05	 11.32	
2018	04	22	15	02	30 	  43.1	  43.1	  41.0	  45.1	 73.5	 44.9	  46.5	  46.5	  44.8	  45.0	  65.9	  45.0	  26.2	  34.2	  26.1	 1020.3	 1020.8	 1020.3	  43.8	  46.1	  41.9	65616	 65617	 65617	Clear	  45.2	  46.1	  43.2	  0.00	  2.05	 11.32	
2018	04	22	15	02	00 	  43.1	  43.1	  41.0	  45.0	 73.5	 44.9	  46.5	  46.5	  44.8	  45.0	  65.9	  45.0	  26.2	  34.2	  26.1	 1020.3	 1020.8	 1020.3	  43.8	  46.1	  41.9	65616	 65617	 65617	Clear	  45.2	  46.1	  43.2	  0.00	  2.05	 11.32	
2018	04	22	15	01	30 	  43.0	  43.1	  41.0	  44.9	 73.5	 45.0	  46.4	  46.4	  44.8	  45.1	  65.9	  45.1	  26.2	  34.2	  26.1	 1020.3	 1020.8	 1020.3	  44.0	  46.1	  41.9	65616	 65617	 65617	Clear	  45.2	  46.1	  43.2	  0.00	  2.05	 11.32	
2018	04	22	15	01	00 	  43.0	  43.1	  41.0	  45.0	 73.5	 45.0	  46.3	  46.4	  44.8	  45.2	  65.9	  45.1	  26.3	  34.2	  26.1	 1020.3	 1020.8	 1020.3	  44.0	  46.1	  41.9	65616	 65617	 65617	Clear	  45.2	  46.1	  43.2	  0.00	  2.05	 11.32	
2018	04	22	15	00	30 	  42.9	  43.1	  41.0	  45.0	 73.5	 45.2	  46.2	  46.4	  44.8	  45.1	  65.9	  45.1	  26.3	  34.2	  26.1	 1020.3	 1020.8	 1020.3	  43.4	  46.1	  41.9	65616	 65617	 65617	Clear	  45.2	  46.1	  43.2	  0.00	  2.05	 11.32	
2018	04	22	15	00	00 	  42.9	  43.1	  41.0	  45.2	 73.5	 45.2	  46.2	  46.4	  44.8	  45.3	  65.9	  45.1	  26.3	  34.2	  26.1	 1020.3	 1020.8	 1020.3	  43.4	  46.1	  41.9	65616	 65617	 65617	Clear	  45.2	  46.1	  43.2	  0.00	  2.05	 11.32	
2018	04	22	14	59	30 	  42.9	  43.1	  41.0	  45.2	 73.5	 45.2	  46.1	  46.4	  44.8	  45.4	  65.9	  45.1	  26.3	  34.2	  26.1	 1020.3	 1020.9	 1020.3	  43.6	  46.1	  41.9	65616	 65617	 65617	Clear	  45.2	  46.1	  43.2	  0.00	  2.05	 11.32	
2018	04	22	14	59	00 	  42.9	  43.1	  41.0	  45.3	 73.5	 45.2	  46.1	  46.4	  44.8	  45.5	  65.9	  45.1	  26.3	  34.2	  26.1	 1020.4	 1020.9	 1020.3	  43.6	  46.1	  41.9	65616	 65617	 65617	Clear	  45.2	  46.1	  43.2	  0.00	  2.05	 11.32	
2018	04	22	14	58	30 	  42.9	  43.1	  40.9	  45.3	 73.5	 45.2	  46.0	  46.4	  44.8	  45.7	  65.9	  45.1	  26.3	  34.2	  26.1	 1020.4	 1020.9	 1020.4	  42.6	  46.1	  41.9	65616	 65617	 65617	Clear	  45.2	  46.1	  43.2	  0.00	  2.05	 11.32	
2018	04	22	14	58	00 	  42.9	  43.1	  40.9	  45.5	 73.5	 45.2	  46.0	  46.4	  44.8	  45.8	  65.9	  45.1	  26.3	  34.2	  26.1	 1020.4	 1020.9	 1020.4	  42.6	  46.1	  41.9	65616	 65617	 65617	Clear	  45.2	  46.1	  43.2	  0.00	  2.05	 11.32	
2018	04	22	14	57	30 	  42.9	  43.1	  40.9	  45.7	 73.8	 45.2	  46.0	  46.4	  44.8	  45.9	  66.0	  45.1	  26.3	  34.3	  26.1	 1020.4	 1020.9	 1020.4	  42.0	  46.1	  41.9	65616	 65617	 65617	Clear	  45.1	  46.1	  43.1	  0.00	  2.05	 11.32	
2018	04	22	14	57	00 	  42.9	  43.1	  40.9	  45.9	 73.8	 45.2	  46.0	  46.4	  44.8	  46.0	  66.0	  45.1	  26.3	  34.3	  26.1	 1020.4	 1020.9	 1020.4	  42.0	  46.1	  41.9	65616	 65617	 65617	Clear	  45.1	  46.1	  43.1	  0.00	  2.05	 11.32	
2018	04	22	14	56	30 	  42.9	  43.1	  40.8	  45.9	 73.9	 45.2	  46.1	  46.4	  44.8	  46.1	  66.1	  45.1	  26.3	  34.4	  26.1	 1020.4	 1020.9	 1020.4	  42.6	  46.1	  41.9	65616	 65617	 65617	Clear	  45.1	  46.1	  43.1	  0.00	  2.05	 11.32	
2018	04	22	14	56	00 	  42.9	  43.1	  40.8	  45.8	 73.9	 45.2	  46.1	  46.4	  44.8	  45.9	  66.1	  45.1	  26.4	  34.4	  26.1	 1020.4	 1020.9	 1020.4	  42.6	  46.1	  41.9	65616	 65617	 65617	Clear	  45.1	  46.1	  43.1	  0.00	  2.05	 11.32	
2018	04	22	14	55	30 	  42.9	  43.1	  40.8	  45.6	 74.4	 45.2	  46.1	  46.4	  44.8	  45.7	  66.6	  45.1	  26.5	  34.6	  26.1	 1020.4	 1020.9	 1020.4	  42.7	  46.1	  41.9	65616	 65617	 65617	Clear	  45.1	  46.1	  43.1	  0.00	  2.05	 11.32	
2018	04	22	14	55	00 	  43.0	  43.1	  40.8	  45.4	 74.4	 45.2	  46.1	  46.4	  44.8	  45.4	  66.6	  45.1	  26.6	  34.6	  26.1	 1020.4	 1020.9	 1020.4	  42.7	  46.1	  41.9	65616	 65617	 65617	Clear	  45.1	  46.1	  43.1	  0.00	  2.05	 11.32	
2018	04	22	14	54	30 	  43.0	  43.1	  40.8	  45.3	 75.3	 45.2	  46.1	  46.4	  44.8	  45.4	  67.0	  45.1	  26.8	  34.7	  26.1	 1020.4	 1020.9	 1020.4	  43.2	  46.1	  41.9	65616	 65617	 65617	Clear	  45.1	  46.1	  43.1	  0.00	  2.05	 11.32	
2018	04	22	14	54	00 	  43.0	  43.1	  40.8	  45.3	 75.3	 45.2	  46.2	  46.4	  44.8	  45.3	  67.0	  45.1	  27.0	  34.7	  26.1	 1020.4	 1020.9	 1020.4	  43.2	  46.1	  41.9	65616	 65617	 65617	Clear	  45.1	  46.1	  43.1	  0.00	  2.05	 11.32	
2018	04	22	14	53	30 	  43.0	  43.1	  40.8	  45.3	 75.6	 45.2	  46.2	  46.4	  44.8	  45.1	  67.3	  45.4	  27.2	  34.9	  26.3	 1020.4	 1020.9	 1020.4	  42.9	  46.1	  41.9	65616	 65617	 65617	Clear	  45.1	  46.1	  43.1	  0.00	  2.05	 11.32	
2018	04	22	14	53	00 	  43.1	  43.1	  40.8	  45.2	 75.6	 45.2	  46.3	  46.4	  44.8	  45.4	  67.3	  45.4	  27.5	  34.9	  26.3	 1020.4	 1020.9	 1020.4	  42.9	  46.1	  41.9	65616	 65617	 65617	Clear	  45.1	  46.1	  43.1	  0.00	  2.05	 11.32	
2018	04	22	14	52	30 	  43.1	  43.0	  40.8	  45.6	 75.6	 45.6	  46.3	  46.4	  44.8	  45.8	  67.3	  45.9	  27.7	  34.9	  26.6	 1020.4	 1020.9	 1020.4	  42.5	  46.1	  41.9	65616	 65617	 65617	Clear	  45.1	  46.1	  43.1	  0.00	  2.05	 11.32	
2018	04	22	14	52	00 	  43.0	  43.0	  40.8	  45.6	 75.6	 45.6	  46.3	  46.4	  44.8	  45.9	  67.3	  45.9	  27.9	  34.9	  26.6	 1020.5	 1020.9	 1020.4	  42.5	  46.1	  41.9	65616	 65617	 65617	Clear	  45.1	  46.1	  43.1	  0.00	  2.05	 11.32	
2018	04	22	14	51	30 	  43.0	  43.0	  40.8	  45.8	 75.6	 46.0	  46.3	  46.4	  44.8	  46.3	  67.3	  46.8	  28.2	  34.9	  27.1	 1020.5	 1020.9	 1020.5	  42.7	  46.1	  41.9	65616	 65617	 65617	Clear	  45.1	  46.1	  43.1	  0.00	  2.05	 11.32	
2018	04	22	14	51	00 	  43.0	  43.0	  40.8	  46.0	 75.6	 46.0	  46.3	  46.4	  44.8	  46.8	  67.3	  46.8	  28.5	  34.9	  27.1	 1020.5	 1020.9	 1020.5	  42.7	  46.1	  41.9	65616	 65617	 65617	Clear	  45.1	  46.1	  43.1	  0.00	  2.05	 11.32	
2018	04	22	14	50	30 	  43.0	  42.9	  40.8	  46.4	 75.6	 46.9	  46.3	  46.4	  44.8	  47.5	  67.4	  48.4	  28.8	  34.9	  27.8	 1020.5	 1020.9	 1020.5	  43.7	  46.1	  41.9	65616	 65617	 65617	Clear	  45.1	  46.1	  43.1	  0.00	  2.05	 11.32	
2018	04	22	14	50	00 	  42.9	  42.9	  40.8	  46.9	 75.6	 46.9	  46.3	  46.4	  44.8	  48.4	  67.4	  48.4	  29.2	  34.9	  27.8	 1020.5	 1020.9	 1020.5	  43.7	  46.1	  41.9	65616	 65617	 65617	Clear	  45.1	  46.1	  43.1	  0.00	  2.05	 11.32	
2018	04	22	14	49	30 	  42.9	  42.8	  40.8	  47.2	 76.0	 47.1	  46.2	  46.4	  44.8	  49.0	  68.0	  49.5	  29.5	  34.9	  28.3	 1020.5	 1020.9	 1020.5	  44.9	  46.1	  41.9	65616	 65617	 62559	Clear	  45.1	  46.1	  43.1	  0.00	  2.05	 11.32	
2018	04	22	14	49	00 	  42.8	  42.8	  40.8	  47.4	 76.0	 47.1	  46.2	  46.4	  44.8	  49.5	  68.0	  49.5	  29.8	  34.9	  28.3	 1020.5	 1020.9	 1020.5	  44.9	  46.1	  41.9	65616	 65617	 62559	Clear	  45.1	  46.1	  43.1	  0.00	  2.05	 11.32	
2018	04	22	14	48	30 	  42.8	  42.7	  40.8	  47.3	 76.0	 47.1	  46.1	  46.4	  44.8	  50.0	  68.1	  50.2	  30.1	  34.9	  28.6	 1020.5	 1020.9	 1020.5	  44.2	  46.1	  41.9	65616	 65617	 62559	Clear	  45.0	  46.1	  43.1	  0.00	  2.05	 11.32	
2018	04	22	14	48	00 	  42.7	  42.7	  40.8	  47.4	 76.0	 47.1	  46.1	  46.4	  44.8	  50.2	  68.1	  50.2	  30.4	  34.9	  28.6	 1020.5	 1020.9	 1020.5	  44.2	  46.1	  41.9	65616	 65617	 62559	Clear	  45.0	  46.1	  43.1	  0.00	  2.05	 11.32	
2018	04	22	14	47	30 	  42.7	  42.6	  40.8	  47.1	 76.1	 47.3	  46.1	  46.4	  44.7	  50.6	  68.2	  51.5	  30.7	  34.9	  29.2	 1020.5	 1020.9	 1020.5	  42.7	  46.1	  41.9	65616	 65617	 62559	Clear	  45.0	  46.1	  43.0	  0.00	  2.05	 11.32	
2018	04	22	14	47	00 	  42.6	  42.6	  40.8	  47.3	 76.1	 47.3	  46.1	  46.4	  44.7	  51.5	  68.2	  51.5	  30.9	  34.9	  29.2	 1020.5	 1020.9	 1020.5	  42.7	  46.1	  41.9	65616	 65617	 62559	Clear	  45.0	  46.1	  43.0	  0.00	  2.05	 11.32	
2018	04	22	14	46	30 	  42.6	  42.6	  40.8	  48.0	 76.9	 49.2	  46.1	  46.4	  44.6	  52.4	  69.3	  53.5	  31.1	  35.2	  30.2	 1020.5	 1020.9	 1020.5	  42.1	  46.1	  41.9	65616	 65617	 62559	Clear	  45.0	  46.1	  43.0	  0.00	  2.05	 11.32	
2018	04	22	14	46	00 	  42.6	  42.6	  40.8	  49.2	 76.9	 49.2	  46.2	  46.4	  44.6	  53.5	  69.3	  53.5	  31.2	  35.2	  30.2	 1020.5	 1020.9	 1020.5	  42.1	  46.1	  41.9	65616	 65617	 62559	Clear	  45.0	  46.1	  43.0	  0.00	  2.05	 11.32	
2018	04	22	14	45	30 	  42.6	  42.5	  40.8	  50.3	 77.3	 50.7	  46.3	  46.4	  44.4	  54.3	  69.6	  54.1	  31.3	  35.2	  30.6	 1020.6	 1020.9	 1020.5	  41.9	  46.1	  41.9	65616	 65617	 62559	Clear	  45.0	  46.1	  43.0	  0.00	  2.05	 11.32	
2018	04	22	14	45	00 	  42.5	  42.5	  40.8	  50.7	 77.3	 50.7	  46.3	  46.4	  44.4	  54.8	  69.6	  54.1	  31.3	  35.2	  30.6	 1020.6	 1020.9	 1020.5	  41.9	  46.1	  41.9	65616	 65617	 62559	Clear	  45.0	  46.1	  43.0	  0.00	  2.05	 11.32	
2018	04	22	14	44	30 	  42.5	  42.5	  40.8	  51.6	 77.4	 52.6	  46.3	  46.4	  44.3	  55.5	  69.6	  54.1	  31.2	  35.2	  30.6	 1020.6	 1020.9	 1020.5	  42.1	  46.1	  42.1	65616	 65617	 62559	Clear	  45.0	  46.1	  43.0	  0.00	  2.05	 11.32	
2018	04	22	14	44	00 	  42.5	  42.5	  40.8	  52.6	 77.4	 52.6	  46.3	  46.4	  44.3	  56.0	  69.6	  54.1	  31.2	  35.2	  30.6	 1020.6	 1020.9	 1020.5	  42.1	  46.1	  42.1	65616	 65617	 62559	Clear	  45.0	  46.1	  43.0	  0.00	  2.05	 11.32	
2018	04	22	14	43	30 	  42.4	  42.4	  40.7	  53.9	 77.7	 54.6	  46.3	  46.4	  44.2	  56.4	  69.6	  54.1	  31.1	  35.2	  30.6	 1020.6	 1020.9	 1020.5	  42.6	  46.1	  42.6	65616	 65617	 62559	Clear	  45.0	  46.1	  43.0	  0.00	  2.05	 11.32	
2018	04	22	14	43	00 	  42.4	  42.4	  40.7	  54.6	 77.7	 54.6	  46.3	  46.4	  44.2	  56.5	  69.6	  54.1	  31.0	  35.2	  30.6	 1020.6	 1020.9	 1020.5	  42.6	  46.1	  42.6	65616	 65617	 62559	Clear	  45.0	  46.1	  43.0	  0.00	  2.05	 11.32	
2018	04	22	14	42	30 	  42.4	  42.4	  40.7	  55.7	 78.2	 56.4	  46.2	  46.4	  44.2	  56.4	  69.6	  54.1	  30.9	  35.2	  30.6	 1020.6	 1020.9	 1020.5	  43.4	  46.1	  43.4	65616	 65617	 62559	Clear	  45.0	  46.1	  43.0	  0.00	  2.05	 11.32	
2018	04	22	14	42	00 	  42.4	  42.4	  40.7	  56.4	 78.2	 56.4	  46.2	  46.4	  44.2	  56.1	  69.6	  54.1	  30.9	  35.2	  30.6	 1020.6	 1020.9	 1020.5	  43.4	  46.1	  43.4	65616	 65617	 62559	Clear	  45.0	  46.1	  43.0	  0.00	  2.05	 11.32	
2018	04	22	14	41	30 	  42.4	  42.3	  40.7	  56.9	 78.2	 56.7	  46.2	  46.4	  44.2	  55.7	  69.6	  54.1	  30.9	  35.2	  30.6	 1020.6	 1020.9	 1020.5	  43.9	  46.1	  43.8	65616	 65617	 62559	Clear	  45.0	  46.1	  43.0	  0.00	  2.05	 11.32	
2018	04	22	14	41	00 	  42.3	  42.3	  40.7	  56.9	 78.2	 56.7	  46.2	  46.4	  44.2	  55.2	  69.6	  54.1	  30.9	  35.2	  30.6	 1020.6	 1020.9	 1020.5	  43.9	  46.1	  43.8	65616	 65617	 62559	Clear	  45.0	  46.1	  43.0	  0.00	  2.05	 11.32	
2018	04	22	14	40	30 	  42.3	  42.3	  40.7	  56.7	 78.2	 56.8	  46.2	  46.4	  44.2	  54.8	  69.6	  54.1	  31.0	  35.2	  30.6	 1020.6	 1021.0	 1020.5	  43.8	  46.1	  43.8	65616	 65617	 62559	Clear	  45.0	  46.1	  43.0	  0.00	  2.05	 11.32	
2018	04	22	14	40	00 	  42.3	  42.3	  40.7	  56.9	 78.2	 56.8	  46.2	  46.4	  44.2	  54.4	  69.6	  54.1	  31.0	  35.2	  30.6	 1020.6	 1021.0	 1020.5	  43.8	  46.1	  43.8	65616	 65617	 62559	Clear	  45.0	  46.1	  43.0	  0.00	  2.05	 11.32	
2018	04	22	14	39	30 	  42.3	  42.3	  40.7	  56.9	 78.8	 56.8	  46.3	  46.4	  44.2	  54.1	  69.6	  54.1	  31.1	  35.2	  30.6	 1020.6	 1021.0	 1020.5	  44.0	  46.1	  44.0	65616	 65617	 62559	Clear	  45.0	  46.1	  43.0	  0.00	  2.05	 11.32	
2018	04	22	14	39	00 	  42.3	  42.3	  40.7	  56.8	 78.8	 56.8	  46.3	  46.4	  44.2	  54.1	  69.6	  54.1	  31.2	  35.2	  30.6	 1020.6	 1021.0	 1020.5	  44.0	  46.1	  44.0	65616	 65617	 62559	Clear	  44.9	  46.1	  43.0	  0.00	  2.05	 11.32	
2018	04	22	14	38	30 	  42.3	  42.3	  40.7	  57.0	 78.9	 57.3	  46.3	  46.4	  44.2	  54.2	  69.7	  54.5	  31.3	  35.2	  30.9	 1020.6	 1021.0	 1020.5	  44.6	  46.1	  44.0	65616	 65617	 62559	Clear	  44.9	  46.1	  43.0	  0.00	  2.05	 11.32	
2018	04	22	14	38	00 	  42.3	  42.3	  40.7	  57.3	 78.9	 57.3	  46.4	  46.4	  44.2	  54.5	  69.7	  54.5	  31.4	  35.2	  30.9	 1020.6	 1021.0	 1020.5	  44.6	  46.1	  44.0	65616	 65617	 62559	Clear	  44.9	  46.1	  43.0	  0.00	  2.05	 11.32	
2018	04	22	14	37	30 	  42.2	  42.2	  40.7	  57.5	 78.9	 58.0	  46.4	  46.4	  44.2	  54.9	  69.7	  55.3	  31.4	  35.2	  31.3	 1020.6	 1021.0	 1020.5	  45.7	  46.1	  44.0	65616	 65617	 62559	Clear	  44.9	  46.1	  42.9	  0.00	  2.05	 11.32	
2018	04	22	14	37	00 	  42.2	  42.2	  40.7	  58.0	 78.9	 58.0	  46.4	  46.4	  44.2	  55.3	  69.7	  55.3	  31.5	  35.2	  31.3	 1020.6	 1021.0	 1020.5	  45.7	  46.1	  44.0	65616	 65617	 62559	Clear	  44.9	  46.1	  42.9	  0.00	  2.05	 11.32	
2018	04	22	14	36	30 	  42.2	  42.2	  40.7	  58.4	 79.2	 58.6	  46.4	  46.4	  44.2	  55.5	  69.9	  55.5	  31.5	  35.3	  31.3	 1020.6	 1021.0	 1020.5	  46.1	  46.1	  44.0	65616	 65617	 62559	Clear	  44.9	  46.1	  42.9	  0.00	  2.05	 11.32	
2018	04	22	14	36	00 	  42.2	  42.2	  40.7	  58.6	 79.2	 58.6	  46.4	  46.4	  44.2	  55.6	  69.9	  55.5	  31.5	  35.3	  31.3	 1020.6	 1021.0	 1020.5	  46.1	  46.1	  44.0	65616	 65617	 62559	Clear	  44.9	  46.1	  42.9	  0.00	  2.05	 11.32	
2018	04	22	14	35	30 	  42.2	  42.2	  40.6	  58.7	 79.2	 59.0	  46.3	  46.3	  44.2	  55.6	  69.9	  55.9	  31.6	  35.3	  31.4	 1020.6	 1021.0	 1020.5	  45.9	  46.0	  44.0	65616	 65617	 62559	Clear	  44.9	  46.1	  42.9	  0.00	  2.05	 11.32	
2018	04	22	14	35	00 	  42.2	  42.2	  40.6	  59.0	 79.2	 59.0	  46.3	  46.3	  44.2	  55.9	  69.9	  55.9	  31.6	  35.3	  31.4	 1020.6	 1021.0	 1020.5	  45.9	  46.0	  44.0	65616	 65617	 62559	Clear	  44.9	  46.1	  42.9	  0.00	  2.05	 11.32	
2018	04	22	14	34	30 	  42.2	  42.2	  40.6	  59.6	 79.2	 59.9	  46.3	  46.2	  44.2	  56.1	  69.9	  56.3	  31.6	  35.3	  31.5	 1020.6	 1021.0	 1020.6	  45.9	  46.0	  44.0	65616	 65617	 62559	Clear	  44.9	  46.1	  42.9	  0.00	  2.05	 11.32	
2018	04	22	14	34	00 	  42.2	  42.2	  40.6	  59.9	 79.2	 59.9	  46.2	  46.2	  44.2	  56.3	  69.9	  56.3	  31.7	  35.3	  31.5	 1020.6	 1021.0	 1020.6	  45.9	  46.0	  44.0	65616	 65617	 62559	Clear	  44.9	  46.1	  42.9	  0.00	  2.05	 11.32	
2018	04	22	14	33	30 	  42.2	  42.2	  40.6	  60.0	 79.2	 60.2	  46.2	  46.1	  44.2	  56.5	  69.9	  56.8	  31.7	  35.3	  31.5	 1020.6	 1021.0	 1020.6	  45.8	  46.0	  44.0	65616	 65617	 62559	Clear	  44.9	  46.1	  42.9	  0.00	  2.05	 11.32	
2018	04	22	14	33	00 	  42.2	  42.2	  40.6	  60.2	 79.2	 60.2	  46.1	  46.1	  44.2	  56.9	  69.9	  56.8	  31.7	  35.3	  31.5	 1020.6	 1021.0	 1020.6	  45.8	  46.0	  44.0	65616	 65617	 62559	Clear	  44.9	  46.1	  42.9	  0.00	  2.05	 11.32	
2018	04	22	14	32	30 	  42.2	  42.2	  40.6	  60.3	 79.2	 60.4	  46.1	  46.0	  44.2	  56.8	  69.9	  56.9	  31.8	  35.3	  31.6	 1020.6	 1021.0	 1020.6	  45.4	  46.0	  44.0	65616	 65617	 62559	Clear	  44.9	  46.1	  42.9	  0.00	  2.05	 11.32	
2018	04	22	14	32	00 	  42.2	  42.2	  40.6	  60.4	 79.2	 60.4	  46.0	  46.0	  44.2	  56.9	  69.9	  56.9	  31.8	  35.3	  31.6	 1020.6	 1021.0	 1020.6	  45.4	  46.0	  44.0	65616	 65617	 62559	Clear	  44.9	  46.1	  42.9	  0.00	  2.05	 11.32	
2018	04	22	14	31	30 	  42.1	  42.1	  40.5	  60.5	 79.2	 60.7	  45.9	  45.9	  44.2	  57.1	  69.9	  57.3	  31.9	  35.3	  31.6	 1020.6	 1021.0	 1020.6	  45.5	  46.0	  44.0	65616	 65617	 62559	Clear	  44.9	  46.1	  42.9	  0.00	  2.05	 11.32	
2018	04	22	14	31	00 	  42.1	  42.1	  40.5	  60.7	 79.2	 60.7	  45.9	  45.9	  44.2	  57.3	  69.9	  57.3	  32.0	  35.3	  31.6	 1020.6	 1021.0	 1020.6	  45.5	  46.0	  44.0	65616	 65617	 62559	Clear	  44.9	  46.1	  42.9	  0.00	  2.05	 11.32	
2018	04	22	14	30	30 	  42.1	  42.0	  40.5	  61.1	 79.2	 60.9	  45.9	  45.8	  44.2	  57.4	  69.9	  57.8	  32.0	  35.3	  31.6	 1020.6	 1021.0	 1020.6	  45.8	  46.0	  44.0	65616	 65617	 62559	Clear	  44.9	  46.1	  42.9	  0.00	  2.05	 11.32	
2018	04	22	14	30	00 	  42.0	  42.0	  40.5	  61.5	 79.2	 60.9	  45.8	  45.8	  44.2	  57.8	  69.9	  57.8	  32.1	  35.3	  31.6	 1020.6	 1021.0	 1020.6	  45.8	  46.0	  44.0	65616	 65617	 62559	Clear	  44.9	  46.1	  42.9	  0.00	  2.05	 11.32	
2018	04	22	14	29	30 	  42.0	  41.9	  40.5	  61.2	 79.2	 60.9	  45.8	  45.8	  44.2	  58.1	  69.9	  58.1	  32.1	  35.3	  31.6	 1020.6	 1021.0	 1020.6	  46.0	  46.0	  44.0	65616	 65617	 62559	Clear	  44.8	  46.1	  42.9	  0.00	  2.05	 11.32	
2018	04	22	14	29	00 	  41.9	  41.9	  40.5	  60.9	 79.2	 60.9	  45.8	  45.8	  44.2	  58.1	  69.9	  58.1	  32.1	  35.3	  31.6	 1020.6	 1021.0	 1020.6	  46.0	  46.0	  44.0	65616	 65617	 62559	Clear	  44.9	  46.1	  42.9	  0.00	  2.05	 11.32	
2018	04	22	14	28	30 	  41.9	  41.9	  40.4	  61.0	 79.2	 61.1	  45.8	  45.8	  44.2	  58.2	  69.9	  58.2	  32.1	  35.3	  31.6	 1020.6	 1021.0	 1020.6	  45.7	  45.9	  44.0	65616	 65617	 62559	Clear	  44.8	  46.1	  42.9	  0.00	  2.05	 11.32	
2018	04	22	14	28	00 	  41.9	  41.9	  40.4	  61.1	 79.2	 61.1	  45.8	  45.8	  44.2	  58.2	  69.9	  58.2	  32.1	  35.3	  31.6	 1020.6	 1021.0	 1020.6	  45.7	  45.9	  44.0	65616	 65617	 62559	Clear	  44.8	  46.1	  42.9	  0.00	  2.05	 11.32	
2018	04	22	14	27	30 	  41.9	  41.9	  40.4	  61.6	 79.2	 61.3	  45.8	  45.8	  44.2	  58.8	  69.9	  58.3	  32.0	  35.3	  31.6	 1020.6	 1021.0	 1020.6	  45.4	  45.9	  44.0	65616	 65617	 62559	Clear	  44.8	  46.1	  42.8	  0.00	  2.05	 11.32	
2018	04	22	14	27	00 	  41.9	  41.9	  40.4	  61.8	 79.2	 61.3	  45.8	  45.8	  44.2	  59.1	  69.9	  58.3	  32.0	  35.3	  31.6	 1020.6	 1021.0	 1020.6	  45.4	  45.9	  44.0	65616	 65617	 62559	Clear	  44.8	  46.1	  42.8	  0.00	  2.05	 11.32	
2018	04	22	14	26	30 	  41.9	  41.9	  40.3	  61.9	 79.2	 61.3	  45.7	  45.7	  44.2	  59.2	  69.9	  58.3	  31.9	  35.3	  31.6	 1020.6	 1021.0	 1020.6	  45.2	  45.9	  44.0	65616	 65617	 62559	Clear	  44.8	  46.1	  42.8	  0.00	  2.05	 11.32	
2018	04	22	14	26	00 	  41.9	  41.9	  40.3	  61.8	 79.2	 61.3	  45.7	  45.7	  44.2	  59.1	  69.9	  58.3	  31.8	  35.3	  31.6	 1020.6	 1021.0	 1020.6	  45.2	  45.9	  44.0	65616	 65617	 62559	Clear	  44.8	  46.1	  42.8	  0.00	  2.05	 11.32	
2018	04	22	14	25	30 	  41.9	  41.8	  40.3	  61.5	 79.2	 61.3	  45.7	  45.6	  44.2	  59.1	  69.9	  58.3	  31.8	  35.3	  31.6	 1020.6	 1021.1	 1020.6	  45.4	  45.9	  44.0	65616	 65617	 62559	Clear	  44.8	  46.1	  42.8	  0.00	  2.05	 11.32	
2018	04	22	14	25	00 	  41.8	  41.8	  40.3	  61.3	 79.2	 61.3	  45.6	  45.6	  44.2	  58.8	  69.9	  58.3	  31.8	  35.3	  31.6	 1020.6	 1021.1	 1020.6	  45.4	  45.9	  44.0	65616	 65617	 62559	Clear	  44.8	  46.1	  42.8	  0.00	  2.05	 11.32	
2018	04	22	14	24	30 	  41.8	  41.8	  40.3	  61.6	 79.2	 61.5	  45.6	  45.6	  44.2	  58.5	  69.9	  58.3	  31.8	  35.3	  31.6	 1020.6	 1021.1	 1020.6	  45.9	  45.9	  44.0	65616	 65617	 62559	Clear	  44.8	  46.1	  42.8	  0.00	  2.05	 11.32	
2018	04	22	14	24	00 	  41.8	  41.8	  40.3	  61.8	 79.2	 61.5	  45.5	  45.6	  44.2	  58.5	  69.9	  58.3	  31.8	  35.3	  31.6	 1020.6	 1021.1	 1020.6	  45.9	  45.9	  44.0	65616	 65617	 62559	Clear	  44.8	  46.1	  42.8	  0.00	  2.05	 11.32	
2018	04	22	14	23	30 	  41.8	  41.7	  40.2	  61.9	 79.2	 61.5	  45.5	  45.6	  44.2	  58.7	  69.9	  58.3	  31.9	  35.3	  31.6	 1020.6	 1021.1	 1020.6	  45.7	  45.7	  43.9	65616	 65617	 62559	Clear	  44.8	  46.1	  42.8	  0.00	  2.05	 11.32	
2018	04	22	14	23	00 	  41.7	  41.7	  40.2	  62.0	 79.2	 61.5	  45.4	  45.6	  44.2	  58.7	  69.9	  58.3	  32.0	  35.3	  31.6	 1020.6	 1021.1	 1020.6	  45.7	  45.7	  43.9	65616	 65617	 62559	Clear	  44.8	  46.1	  42.8	  0.00	  2.05	 11.32	
2018	04	22	14	22	30 	  41.7	  41.7	  40.2	  61.8	 79.2	 61.5	  45.4	  45.6	  44.1	  58.4	  70.2	  58.3	  32.1	  35.3	  31.6	 1020.6	 1021.1	 1020.6	  45.5	  45.7	  43.9	65616	 65617	 62559	Clear	  44.8	  46.1	  42.8	  0.00	  2.05	 11.32	
2018	04	22	14	22	00 	  41.7	  41.7	  40.2	  61.6	 79.2	 61.5	  45.4	  45.6	  44.1	  58.4	  70.2	  58.3	  32.2	  35.3	  31.6	 1020.6	 1021.1	 1020.6	  45.5	  45.7	  43.9	65616	 65617	 62559	Clear	  44.8	  46.1	  42.8	  0.00	  2.05	 11.32	
2018	04	22	14	21	30 	  41.7	  41.7	  40.2	  61.5	 79.5	 61.7	  45.4	  45.6	  44.0	  58.3	  70.6	  58.6	  32.3	  35.3	  31.8	 1020.6	 1021.1	 1020.6	  45.5	  45.7	  43.9	65616	 65617	 62559	Clear	  44.8	  46.1	  42.8	  0.00	  2.05	 11.32	
2018	04	22	14	21	00 	  41.7	  41.7	  40.2	  61.7	 79.5	 61.7	  45.4	  45.6	  44.0	  58.6	  70.6	  58.6	  32.4	  35.3	  31.8	 1020.6	 1021.1	 1020.6	  45.5	  45.7	  43.9	65616	 65617	 62559	Clear	  44.8	  46.1	  42.8	  0.00	  2.05	 11.32	
2018	04	22	14	20	30 	  41.7	  41.6	  40.2	  62.5	 79.8	 63.0	  45.5	  45.6	  44.0	  58.7	  70.6	  59.0	  32.5	  35.3	  32.0	 1020.7	 1021.1	 1020.7	  45.4	  45.7	  43.9	65616	 65617	 62559	Clear	  44.8	  46.1	  42.8	  0.00	  2.05	 11.32	
2018	04	22	14	20	00 	  41.6	  41.6	  40.2	  63.0	 79.8	 63.0	  45.5	  45.6	  44.0	  59.0	  70.6	  59.0	  32.6	  35.3	  32.0	 1020.7	 1021.1	 1020.7	  45.4	  45.7	  43.9	65616	 65617	 62559	Clear	  44.8	  46.1	  42.8	  0.00	  2.05	 11.32	
2018	04	22	14	19	30 	  41.6	  41.6	  40.2	  63.6	 80.6	 64.1	  45.5	  45.6	  44.0	  59.5	  70.7	  59.9	  32.6	  35.3	  32.4	 1020.7	 1021.1	 1020.7	  45.3	  45.7	  43.9	65616	 65617	 62559	Clear	  44.8	  46.1	  42.8	  0.00	  2.05	 11.32	
2018	04	22	14	19	00 	  41.6	  41.6	  40.2	  64.1	 80.6	 64.1	  45.5	  45.6	  44.0	  59.9	  70.7	  59.9	  32.7	  35.3	  32.4	 1020.7	 1021.1	 1020.7	  45.3	  45.7	  43.9	65616	 65617	 62559	Clear	  44.7	  46.1	  42.8	  0.00	  2.05	 11.32	
2018	04	22	14	18	30 	  41.6	  41.6	  40.2	  64.4	 81.1	 64.6	  45.6	  45.6	  44.0	  60.0	  70.9	  60.1	  32.7	  35.4	  32.5	 1020.7	 1021.1	 1020.7	  45.4	  45.7	  43.9	65616	 65617	 62559	Clear	  44.7	  46.1	  42.8	  0.00	  2.05	 11.32	
2018	04	22	14	18	00 	  41.6	  41.6	  40.2	  64.6	 81.1	 64.6	  45.6	  45.6	  44.0	  60.1	  70.9	  60.1	  32.7	  35.4	  32.5	 1020.7	 1021.1	 1020.7	  45.4	  45.7	  43.9	65616	 65617	 62559	Clear	  44.7	  46.1	  42.8	  0.00	  2.05	 11.32	
2018	04	22	14	17	30 	  41.6	  41.6	  40.2	  64.8	 81.3	 65.3	  45.6	  45.6	  44.0	  60.5	  70.9	  60.5	  32.7	  35.6	  32.5	 1020.7	 1021.1	 1020.7	  45.4	  45.7	  43.9	65616	 65617	 62559	Clear	  44.7	  46.1	  42.7	  0.00	  2.05	 11.32	
2018	04	22	14	17	00 	  41.6	  41.6	  40.2	  65.3	 81.3	 65.3	  45.6	  45.6	  44.0	  60.5	  70.9	  60.5	  32.7	  35.6	  32.5	 1020.7	 1021.1	 1020.7	  45.4	  45.7	  43.9	65616	 65617	 62559	Clear	  44.7	  46.1	  42.7	  0.00	  2.05	 11.32	
2018	04	22	14	16	30 	  41.6	  41.6	  40.2	  65.7	 81.7	 65.6	  45.6	  45.5	  44.0	  60.7	  71.1	  60.5	  32.7	  35.8	  32.5	 1020.7	 1021.1	 1020.7	  45.7	  45.7	  43.8	65616	 65617	 62559	Clear	  44.7	  46.1	  42.7	  0.00	  2.05	 11.32	
2018	04	22	14	16	00 	  41.6	  41.6	  40.2	  65.8	 81.7	 65.6	  45.5	  45.5	  44.0	  60.7	  71.1	  60.5	  32.7	  35.8	  32.5	 1020.7	 1021.1	 1020.7	  45.7	  45.7	  43.8	65616	 65617	 62559	Clear	  44.7	  46.1	  42.7	  0.00	  2.05	 11.32	
2018	04	22	14	15	30 	  41.6	  41.6	  40.2	  65.7	 81.8	 65.6	  45.5	  45.5	  44.0	  61.0	  71.4	  60.5	  32.7	  36.0	  32.5	 1020.7	 1021.1	 1020.7	  45.7	  45.7	  43.4	65616	 65617	 62559	Clear	  44.7	  46.1	  42.7	  0.00	  2.05	 11.32	
2018	04	22	14	15	00 	  41.6	  41.6	  40.2	  65.8	 81.8	 65.6	  45.5	  45.5	  44.0	  61.0	  71.4	  60.5	  32.7	  36.0	  32.5	 1020.7	 1021.1	 1020.7	  45.7	  45.7	  43.4	65616	 65617	 62559	Clear	  44.7	  46.1	  42.7	  0.00	  2.05	 11.32	
2018	04	22	14	14	30 	  41.6	  41.6	  40.2	  66.0	 81.8	 65.6	  45.5	  45.4	  44.0	  61.0	  72.1	  60.5	  32.8	  36.2	  32.5	 1020.7	 1021.1	 1020.7	  45.7	  45.7	  43.4	65616	 65617	 62559	Clear	  44.7	  46.1	  42.7	  0.00	  2.05	 11.32	
2018	04	22	14	14	00 	  41.6	  41.6	  40.2	  66.0	 81.8	 65.6	  45.4	  45.4	  44.0	  60.9	  72.1	  60.5	  32.8	  36.2	  32.5	 1020.7	 1021.1	 1020.7	  45.7	  45.7	  43.4	65616	 65617	 62559	Clear	  44.7	  46.1	  42.7	  0.00	  2.05	 11.32	
2018	04	22	14	13	30 	  41.6	  41.6	  40.2	  65.9	 81.8	 65.6	  45.4	  45.4	  44.0	  60.9	  72.5	  60.5	  32.8	  36.2	  32.5	 1020.7	 1021.1	 1020.7	  45.5	  45.5	  43.4	65616	 65617	 62559	Clear	  44.7	  46.1	  42.7	  0.00	  2.05	 11.32	
2018	04	22	14	13	00 	  41.6	  41.6	  40.2	  65.7	 81.8	 65.6	  45.4	  45.4	  44.0	  60.8	  72.5	  60.5	  32.9	  36.2	  32.5	 1020.7	 1021.1	 1020.7	  45.5	  45.5	  43.4	65616	 65617	 62559	Clear	  44.7	  46.1	  42.7	  0.00	  2.05	 11.32	
2018	04	22	14	12	30 	  41.6	  41.6	  40.1	  65.6	 81.8	 65.9	  45.4	  45.4	  44.0	  60.5	  72.8	  60.6	  33.0	  36.2	  32.6	 1020.7	 1021.1	 1020.7	  45.2	  45.5	  43.4	65616	 65617	 62559	Clear	  44.7	  46.1	  42.7	  0.00	  2.05	 11.32	
2018	04	22	14	12	00 	  41.6	  41.6	  40.1	  65.9	 81.8	 65.9	  45.4	  45.4	  44.0	  60.6	  72.8	  60.6	  33.1	  36.2	  32.6	 1020.7	 1021.1	 1020.7	  45.2	  45.5	  43.4	65616	 65617	 62559	Clear	  44.7	  46.1	  42.7	  0.00	  2.05	 11.32	
2018	04	22	14	11	30 	  41.6	  41.6	  40.1	  66.4	 81.8	 67.1	  45.4	  45.4	  44.0	  61.0	  72.9	  61.5	  33.2	  36.2	  32.9	 1020.7	 1021.1	 1020.7	  45.4	  45.5	  43.4	65616	 65617	 62559	Clear	  44.7	  46.1	  42.7	  0.00	  2.05	 11.32	
2018	04	22	14	11	00 	  41.6	  41.6	  40.1	  67.1	 81.8	 67.1	  45.4	  45.4	  44.0	  61.5	  72.9	  61.5	  33.3	  36.2	  32.9	 1020.7	 1021.1	 1020.7	  45.4	  45.5	  43.4	65616	 65617	 62559	Clear	  44.7	  46.1	  42.7	  0.00	  2.05	 11.32	
2018	04	22	14	10	30 	  41.5	  41.5	  40.1	  67.4	 81.8	 67.3	  45.4	  45.3	  44.0	  61.6	  73.1	  61.7	  33.4	  36.2	  33.0	 1020.7	 1021.1	 1020.7	  45.5	  45.5	  42.2	65616	 65617	 62559	Clear	  44.7	  46.1	  42.7	  0.00	  2.05	 11.32	
2018	04	22	14	10	00 	  41.5	  41.5	  40.1	  67.3	 81.8	 67.3	  45.3	  45.3	  44.0	  61.7	  73.1	  61.7	  33.5	  36.2	  33.0	 1020.7	 1021.1	 1020.7	  45.5	  45.5	  42.2	65616	 65617	 62559	Clear	  44.7	  46.1	  42.7	  0.00	  2.05	 11.32	
2018	04	22	14	09	30 	  41.4	  41.4	  40.1	  67.4	 81.8	 67.7	  45.3	  45.2	  43.8	  62.0	  73.1	  62.2	  33.6	  36.2	  33.1	 1020.7	 1021.1	 1020.7	  45.5	  45.5	  42.2	65616	 65617	 62559	Clear	  44.7	  46.1	  42.7	  0.00	  2.05	 11.32	
2018	04	22	14	09	00 	  41.4	  41.4	  40.1	  67.7	 81.8	 67.7	  45.2	  45.2	  43.8	  62.2	  73.1	  62.2	  33.7	  36.2	  33.1	 1020.7	 1021.1	 1020.7	  45.5	  45.5	  42.2	65616	 65617	 62559	Clear	  44.7	  46.1	  42.7	  0.00	  2.05	 11.32	
2018	04	22	14	08	30 	  41.4	  41.3	  40.0	  68.3	 81.8	 69.4	  45.2	  45.2	  43.7	  62.5	  73.1	  63.0	  33.8	  36.2	  33.4	 1020.7	 1021.2	 1020.7	  45.3	  45.3	  41.8	65616	 65617	 62559	Clear	  44.6	  46.1	  42.7	  0.00	  2.05	 11.32	
2018	04	22	14	08	00 	  41.3	  41.3	  40.0	  69.4	 81.8	 69.4	  45.2	  45.2	  43.7	  63.0	  73.1	  63.0	  33.9	  36.2	  33.4	 1020.7	 1021.2	 1020.7	  45.3	  45.3	  41.8	65616	 65617	 62559	Clear	  44.7	  46.1	  42.7	  0.00	  2.05	 11.32	
2018	04	22	14	07	30 	  41.3	  41.3	  40.0	  70.3	 81.8	 70.8	  45.2	  45.1	  43.6	  63.6	  73.1	  63.9	  33.9	  36.2	  33.7	 1020.8	 1021.2	 1020.8	  45.3	  45.3	  41.8	65616	 65617	 62559	Clear	  44.6	  46.1	  42.6	  0.00	  2.05	 11.32	
2018	04	22	14	07	00 	  41.3	  41.3	  40.0	  70.8	 81.8	 70.8	  45.1	  45.1	  43.6	  63.9	  73.1	  63.9	  34.0	  36.2	  33.7	 1020.8	 1021.2	 1020.8	  45.3	  45.3	  41.8	65616	 65617	 62559	Clear	  44.6	  46.1	  42.6	  0.00	  2.05	 11.32	
2018	04	22	14	06	30 	  41.2	  41.2	  39.9	  71.0	 81.8	 71.2	  45.1	  45.1	  43.6	  64.2	  73.1	  64.4	  34.0	  36.2	  33.7	 1020.8	 1021.2	 1020.8	  45.2	  45.2	  41.8	65616	 65617	 62559	Clear	  44.6	  46.1	  42.6	  0.00	  2.05	 11.32	
2018	04	22	14	06	00 	  41.2	  41.2	  39.9	  71.2	 81.8	 71.2	  45.1	  45.1	  43.6	  64.4	  73.1	  64.4	  34.0	  36.2	  33.7	 1020.8	 1021.2	 1020.8	  45.2	  45.2	  41.8	65616	 65617	 62559	Clear	  44.6	  46.1	  42.6	  0.00	  2.05	 11.32	
2018	04	22	14	05	30 	  41.1	  41.1	  39.9	  71.7	 81.8	 71.5	  45.0	  45.0	  43.6	  64.9	  73.1	  64.4	  34.0	  36.2	  33.7	 1020.8	 1021.2	 1020.8	  45.1	  45.2	  41.7	65616	 65617	 62559	Clear	  44.6	  46.1	  42.6	  0.00	  2.05	 11.32	

Wind data

Year   mnth   day   hh    mm     ss       ff    dd

2018	04	22	16	09	45 	   2.7	  270	
2018	04	22	16	09	15 	   2.0	  244	
2018	04	22	16	08	45 	   2.2	  253	
2018	04	22	16	08	15 	   1.6	  254	
2018	04	22	16	07	45 	   1.6	  270	
2018	04	22	16	07	15 	   3.6	  252	
2018	04	22	16	06	45 	   2.2	  253	
2018	04	22	16	06	15 	   2.5	  260	
2018	04	22	16	05	45 	   3.4	  259	
2018	04	22	16	05	15 	   2.7	  256	
2018	04	22	16	04	45 	   3.6	  248	
2018	04	22	16	04	15 	   2.7	  251	
2018	04	22	16	03	45 	   3.1	  270	
2018	04	22	16	03	15 	   3.1	  258	
2018	04	22	16	02	45 	   3.1	  270	
2018	04	22	16	02	15 	   5.1	  250	
2018	04	22	16	01	45 	   3.6	  256	
2018	04	22	16	01	15 	   3.8	  260	
2018	04	22	16	00	45 	   3.6	  256	
2018	04	22	16	00	15 	   2.7	  270	
2018	04	22	15	59	45 	   3.8	  260	
2018	04	22	15	59	15 	   3.6	  252	
2018	04	22	15	58	45 	   4.3	  255	
2018	04	22	15	58	15 	   4.0	  257	
2018	04	22	15	57	45 	   4.0	  270	
2018	04	22	15	57	15 	   3.1	  258	
2018	04	22	15	56	45 	   3.4	  270	
2018	04	22	15	56	15 	   2.7	  289	
2018	04	22	15	55	45 	   3.6	  263	
2018	04	22	15	55	15 	   3.1	  270	
2018	04	22	15	54	45 	   3.4	  262	
2018	04	22	15	54	15 	   3.1	  270	
2018	04	22	15	53	45 	   3.8	  273	
2018	04	22	15	53	15 	   3.8	  267	
2018	04	22	15	52	45 	   3.4	  270	
2018	04	22	15	52	15 	   3.4	  262	
2018	04	22	15	51	45 	   3.8	  270	
2018	04	22	15	51	15 	   3.1	  274	
2018	04	22	15	50	45 	   3.6	  267	
2018	04	22	15	50	15 	   3.1	  266	
2018	04	22	15	49	45 	   3.6	  259	
2018	04	22	15	49	15 	   3.1	  262	
2018	04	22	15	48	45 	   3.4	  255	
2018	04	22	15	48	15 	   3.6	  263	
2018	04	22	15	47	45 	   3.8	  257	
2018	04	22	15	47	15 	   3.8	  253	
2018	04	22	15	46	45 	   4.0	  261	
2018	04	22	15	46	15 	   4.0	  264	
2018	04	22	15	45	45 	   3.4	  262	
2018	04	22	15	45	15 	   4.0	  254	
2018	04	22	15	44	45 	   3.6	  259	
2018	04	22	15	44	15 	   4.3	  252	
2018	04	22	15	43	45 	   3.6	  267	
2018	04	22	15	43	15 	   4.3	  258	
2018	04	22	15	42	45 	   4.7	  270	
2018	04	22	15	42	15 	   4.5	  262	
2018	04	22	15	41	45 	   4.0	  257	
2018	04	22	15	41	15 	   4.0	  254	
2018	04	22	15	40	45 	   4.0	  257	
2018	04	22	15	40	15 	   4.0	  267	
2018	04	22	15	39	45 	   4.3	  264	
2018	04	22	15	39	15 	   4.5	  262	
2018	04	22	15	38	45 	   3.8	  263	
2018	04	22	15	38	15 	   3.8	  260	
2018	04	22	15	37	45 	   3.6	  259	
2018	04	22	15	37	15 	   3.8	  270	
2018	04	22	15	36	45 	   3.8	  267	
2018	04	22	15	36	15 	   4.0	  264	
2018	04	22	15	35	45 	   4.3	  264	
2018	04	22	15	35	15 	   4.0	  270	
2018	04	22	15	34	45 	   3.8	  263	
2018	04	22	15	34	15 	   3.8	  263	
2018	04	22	15	33	45 	   3.6	  252	
2018	04	22	15	33	15 	   3.4	  270	
2018	04	22	15	32	45 	   4.9	  254	
2018	04	22	15	32	15 	   4.7	  257	
2018	04	22	15	31	45 	   4.3	  270	
2018	04	22	15	31	15 	   3.6	  259	
2018	04	22	15	30	45 	   4.7	  270	
2018	04	22	15	30	15 	   4.5	  259	
2018	04	22	15	29	45 	   4.5	  253	
2018	04	22	15	29	15 	   4.9	  254	
2018	04	22	15	28	45 	   4.9	  262	
2018	04	22	15	28	15 	   4.5	  242	
2018	04	22	15	27	45 	   5.1	  253	
2018	04	22	15	27	15 	   4.7	  257	
2018	04	22	15	26	45 	   4.3	  252	
2018	04	22	15	26	15 	   4.3	  255	
2018	04	22	15	25	45 	   5.8	  252	
2018	04	22	15	25	15 	   5.4	  258	
2018	04	22	15	24	45 	   4.9	  249	
2018	04	22	15	24	15 	   6.0	  251	
2018	04	22	15	23	45 	   6.0	  251	
2018	04	22	15	23	15 	   4.7	  257	
2018	04	22	15	22	45 	   4.5	  262	
2018	04	22	15	22	15 	   5.1	  260	
2018	04	22	15	21	45 	   4.9	  246	
2018	04	22	15	21	15 	   5.1	  253	
2018	04	22	15	20	45 	   5.4	  258	
2018	04	22	15	20	15 	   4.7	  270	
2018	04	22	15	19	45 	   4.9	  257	
2018	04	22	15	19	15 	   4.0	  264	
2018	04	22	15	18	45 	   4.3	  279	
2018	04	22	15	18	15 	   4.0	  257	
2018	04	22	15	17	45 	   4.9	  239	
2018	04	22	15	17	15 	   6.7	  255	
2018	04	22	15	16	45 	   4.3	  249	
2018	04	22	15	16	15 	   5.1	  265	
2018	04	22	15	15	45 	   6.0	  243	
2018	04	22	15	15	15 	   6.7	  241	
2018	04	22	15	14	45 	   6.0	  251	
2018	04	22	15	14	15 	   5.1	  247	
2018	04	22	15	13	45 	   4.0	  270	
2018	04	22	15	13	15 	   5.8	  259	
2018	04	22	15	12	45 	   6.3	  254	
2018	04	22	15	12	15 	   4.7	  257	
2018	04	22	15	11	45 	   5.8	  241	
2018	04	22	15	11	15 	   4.9	  260	
2018	04	22	15	10	45 	   5.1	  253	
2018	04	22	15	10	15 	   4.5	  262	
2018	04	22	15	09	45 	   4.7	  251	
2018	04	22	15	09	15 	   6.0	  247	
2018	04	22	15	08	45 	   6.3	  248	
2018	04	22	15	08	15 	   5.6	  256	
2018	04	22	15	07	45 	   4.9	  254	
2018	04	22	15	07	15 	   4.9	  223	
2018	04	22	15	06	45 	   7.6	  255	
2018	04	22	15	06	15 	   6.0	  260	
2018	04	22	15	05	45 	   5.8	  241	
2018	04	22	15	05	15 	   6.9	  261	
2018	04	22	15	04	45 	   6.9	  255	
2018	04	22	15	04	15 	   5.4	  258	
2018	04	22	15	03	45 	   4.7	  251	
2018	04	22	15	03	15 	   4.9	  252	
2018	04	22	15	02	45 	   5.8	  259	
2018	04	22	15	02	15 	   5.8	  259	
2018	04	22	15	01	45 	   4.9	  262	
2018	04	22	15	01	15 	   4.9	  242	
2018	04	22	15	00	45 	   5.8	  248	
2018	04	22	15	00	15 	   4.5	  239	
2018	04	22	14	59	45 	   5.4	  248	
2018	04	22	14	59	15 	   5.4	  261	
2018	04	22	14	58	45 	   6.0	  251	
2018	04	22	14	58	15 	   5.8	  259	
2018	04	22	14	57	45 	   4.9	  254	
2018	04	22	14	57	15 	   5.6	  247	
2018	04	22	14	56	45 	   6.0	  255	
2018	04	22	14	56	15 	   5.8	  248	
2018	04	22	14	55	45 	   5.8	  257	
2018	04	22	14	55	15 	   6.0	  257	
2018	04	22	14	54	45 	   5.4	  246	
2018	04	22	14	54	15 	   5.4	  258	
2018	04	22	14	53	45 	   5.4	  248	
2018	04	22	14	53	15 	   5.4	  244	
2018	04	22	14	52	45 	   5.8	  255	
2018	04	22	14	52	15 	   6.3	  251	
2018	04	22	14	51	45 	   5.6	  247	
2018	04	22	14	51	15 	   6.3	  248	
2018	04	22	14	50	45 	   6.3	  249	
2018	04	22	14	50	15 	   6.0	  255	
2018	04	22	14	49	45 	   6.5	  247	
2018	04	22	14	49	15 	   5.6	  249	
2018	04	22	14	48	45 	   5.8	  248	
2018	04	22	14	48	15 	   4.3	  258	
2018	04	22	14	47	45 	   5.4	  248	
2018	04	22	14	47	15 	   3.6	  256	
2018	04	22	14	46	45 	   5.8	  248	
2018	04	22	14	46	15 	   6.0	  266	
2018	04	22	14	45	45 	   6.3	  249	
2018	04	22	14	45	15 	   5.4	  251	
2018	04	22	14	44	45 	   6.5	  250	
2018	04	22	14	44	15 	   5.8	  252	
2018	04	22	14	43	45 	   5.8	  252	
2018	04	22	14	43	15 	   6.3	  251	
2018	04	22	14	42	45 	   5.4	  256	
2018	04	22	14	42	15 	   6.3	  251	
2018	04	22	14	41	45 	   5.6	  249	
2018	04	22	14	41	15 	   5.6	  259	
2018	04	22	14	40	45 	   5.1	  253	
2018	04	22	14	40	15 	   4.5	  259	
2018	04	22	14	39	45 	   5.6	  259	
2018	04	22	14	39	15 	   5.1	  253	
2018	04	22	14	38	45 	   4.3	  235	
2018	04	22	14	38	15 	   5.6	  256	
2018	04	22	14	37	45 	   5.8	  257	
2018	04	22	14	37	15 	   4.9	  262	
2018	04	22	14	36	45 	   4.9	  260	
2018	04	22	14	36	15 	   4.5	  259	
2018	04	22	14	35	45 	   3.8	  273	
2018	04	22	14	35	15 	   4.3	  255	
2018	04	22	14	34	45 	   4.3	  261	
2018	04	22	14	34	15 	   4.0	  257	
2018	04	22	14	33	45 	   4.0	  257	
2018	04	22	14	33	15 	   4.0	  247	
2018	04	22	14	32	45 	   4.9	  257	
2018	04	22	14	32	15 	   4.5	  259	
2018	04	22	14	31	45 	   4.3	  261	
2018	04	22	14	31	15 	   4.0	  267	
2018	04	22	14	30	45 	   4.3	  258	
2018	04	22	14	30	15 	   4.5	  262	
2018	04	22	14	29	45 	   4.9	  267	
2018	04	22	14	29	15 	   4.5	  262	
2018	04	22	14	28	45 	   4.9	  270	
2018	04	22	14	28	15 	   4.3	  258	
2018	04	22	14	27	45 	   3.8	  267	
2018	04	22	14	27	15 	   3.8	  267	
2018	04	22	14	26	45 	   3.8	  260	
2018	04	22	14	26	15 	   4.3	  258	
2018	04	22	14	25	45 	   4.5	  262	
2018	04	22	14	25	15 	   4.5	  262	
2018	04	22	14	24	45 	   4.0	  257	
2018	04	22	14	24	15 	   4.5	  259	
2018	04	22	14	23	45 	   4.3	  261	
2018	04	22	14	23	15 	   4.0	  264	
2018	04	22	14	22	45 	   4.0	  261	
2018	04	22	14	22	15 	   3.8	  267	
2018	04	22	14	21	45 	   4.3	  270	
2018	04	22	14	21	15 	   4.0	  267	
2018	04	22	14	20	45 	   4.5	  262	
2018	04	22	14	20	15 	   3.8	  267	
2018	04	22	14	19	45 	   5.4	  256	
2018	04	22	14	19	15 	   3.6	  256	
2018	04	22	14	18	45 	   4.0	  264	
2018	04	22	14	18	15 	   4.0	  264	
2018	04	22	14	17	45 	   4.9	  262	
2018	04	22	14	17	15 	   3.8	  263	
2018	04	22	14	16	45 	   3.6	  248	
2018	04	22	14	16	15 	   3.8	  267	
2018	04	22	14	15	45 	   4.3	  264	
2018	04	22	14	15	15 	   3.6	  263	
2018	04	22	14	14	45 	   3.6	  263	
2018	04	22	14	14	15 	   4.3	  264	
2018	04	22	14	13	45 	   3.8	  263	
2018	04	22	14	13	15 	   3.4	  266	
2018	04	22	14	12	45 	   3.8	  263	
2018	04	22	14	12	15 	   4.0	  267	
2018	04	22	14	11	45 	   3.8	  263	
2018	04	22	14	11	15 	   3.1	  262	
2018	04	22	14	10	45 	   3.6	  263	
2018	04	22	14	10	15 	   4.5	  267	
2018	04	22	14	09	45 	   3.6	  281	
2018	04	22	14	09	15 	   3.4	  266	
2018	04	22	14	08	45 	   4.0	  267	
2018	04	22	14	08	15 	   3.4	  270	
2018	04	22	14	07	45 	   3.8	  270	
2018	04	22	14	07	15 	   4.0	  257	
2018	04	22	14	06	45 	   3.8	  270	
2018	04	22	14	06	14 	   3.4	  262	
2018	04	22	14	05	44 	   3.1	  270	
2018	04	22	14	05	14 	   4.0	  261	
2018	04	22	14	04	44 	   3.6	  274	
2018	04	22	14	04	14 	   4.0	  270	
2018	04	22	14	03	44 	   3.4	  270	
2018	04	22	14	03	14 	   4.0	  270	
2018	04	22	14	02	44 	   3.1	  282	
2018	04	22	14	02	14 	   2.7	  270	
2018	04	22	14	01	44 	   4.0	  270	
2018	04	22	14	01	14 	   3.6	  263	
2018	04	22	14	00	44 	   3.8	  270	
2018	04	22	14	00	14 	   3.6	  274	
2018	04	22	13	59	44 	   4.3	  261	
2018	04	22	13	59	14 	   4.0	  257	
2018	04	22	13	58	44 	   4.3	  270	
2018	04	22	13	58	14 	   3.8	  270	
2018	04	22	13	57	44 	   4.0	  267	
2018	04	22	13	57	14 	   4.3	  270	
2018	04	22	13	56	44 	   4.0	  264	
2018	04	22	13	56	14 	   4.0	  254	
2018	04	22	13	55	44 	   3.8	  270	
2018	04	22	13	55	14 	   2.9	  270	
2018	04	22	13	54	44 	   3.4	  262	
2018	04	22	13	54	14 	   3.4	  270	
2018	04	22	13	53	44 	   3.8	  270	
2018	04	22	13	53	14 	   4.3	  261	
2018	04	22	13	52	44 	   4.5	  267	
2018	04	22	13	52	14 	   4.5	  259	
2018	04	22	13	51	44 	   3.8	  263	
2018	04	22	13	51	14 	   4.3	  264	
2018	04	22	13	50	44 	   4.3	  270	
2018	04	22	13	50	14 	   4.3	  270	
2018	04	22	13	49	44 	   4.0	  267	
2018	04	22	13	49	14 	   3.8	  277	
2018	04	22	13	48	44 	   4.0	  270	
2018	04	22	13	48	14 	   3.6	  267	
2018	04	22	13	47	44 	   4.3	  270	
2018	04	22	13	47	14 	   3.1	  270	
2018	04	22	13	46	44 	   4.3	  270	
2018	04	22	13	46	14 	   4.0	  270	
2018	04	22	13	45	44 	   4.0	  267	
2018	04	22	13	45	14 	   4.0	  264	
2018	04	22	13	44	44 	   4.7	  265	
2018	04	22	13	44	14 	   3.8	  270	
2018	04	22	13	43	44 	   2.9	  270	
2018	04	22	13	43	14 	   4.3	  264	
2018	04	22	13	42	44 	   2.9	  266	
2018	04	22	13	42	14 	   4.3	  261	
2018	04	22	13	41	44 	   3.8	  263	
2018	04	22	13	41	14 	   4.7	  270	
2018	04	22	13	40	44 	   4.3	  255	
2018	04	22	13	40	14 	   4.0	  261	
2018	04	22	13	39	44 	   3.8	  257	
2018	04	22	13	39	14 	   3.6	  263	
2018	04	22	13	38	44 	   3.1	  262	
2018	04	22	13	38	14 	   4.3	  261	
2018	04	22	13	37	44 	   3.4	  259	
2018	04	22	13	37	14 	   2.9	  243	
2018	04	22	13	36	44 	   3.6	  259	
2018	04	22	13	36	14 	   3.6	  263	
2018	04	22	13	35	44 	   4.0	  257	
2018	04	22	13	35	14 	   4.0	  267	
2018	04	22	13	34	44 	   3.8	  267	
2018	04	22	13	34	14 	   4.0	  251	
2018	04	22	13	33	44 	   3.4	  274	
2018	04	22	13	33	14 	   3.8	  267	
2018	04	22	13	32	44 	   4.3	  261	
2018	04	22	13	32	14 	   4.7	  270	
2018	04	22	13	31	44 	   3.1	  270	
2018	04	22	13	31	14 	   4.0	  267	
2018	04	22	13	30	44 	   3.6	  267	
2018	04	22	13	30	14 	   3.4	  274	
2018	04	22	13	29	44 	   3.6	  274	
2018	04	22	13	29	14 	   3.6	  274	
2018	04	22	13	28	44 	   3.8	  284	
2018	04	22	13	28	14 	   3.8	  270	
2018	04	22	13	27	44 	   3.1	  278	
2018	04	22	13	27	14 	   4.0	  270	
2018	04	22	13	26	44 	   3.8	  270	
2018	04	22	13	26	14 	   4.0	  273	
2018	04	22	13	25	44 	   3.6	  267	
2018	04	22	13	25	14 	   4.3	  270	
2018	04	22	13	24	44 	   3.8	  273	
2018	04	22	13	24	14 	   3.8	  267	
2018	04	22	13	23	44 	   4.9	  270	
2018	04	22	13	23	14 	   4.9	  267	
2018	04	22	13	22	44 	   4.3	  273	
2018	04	22	13	22	14 	   3.8	  280	
2018	04	22	13	21	44 	   3.8	  273	
2018	04	22	13	21	14 	   5.1	  260	
2018	04	22	13	20	44 	   3.6	  267	
2018	04	22	13	20	14 	   3.4	  266	
2018	04	22	13	19	44 	   3.8	  280	
2018	04	22	13	19	14 	   4.0	  273	
2018	04	22	13	18	44 	   4.5	  262	
2018	04	22	13	18	14 	   4.9	  267	
2018	04	22	13	17	44 	   4.0	  267	
2018	04	22	13	17	14 	   3.8	  263	
2018	04	22	13	16	44 	   3.4	  270	
2018	04	22	13	16	14 	   3.4	  262	
2018	04	22	13	15	44 	   4.9	  267	
2018	04	22	13	15	14 	   4.9	  260	
2018	04	22	13	14	44 	   2.9	  279	
2018	04	22	13	14	15 	   4.3	  255	
2018	04	22	13	13	45 	   4.7	  270	
2018	04	22	13	13	15 	   4.0	  257	
2018	04	22	13	12	45 	   4.3	  264	
2018	04	22	13	12	15 	   4.7	  270	
2018	04	22	13	11	45 	   3.6	  244	
2018	04	22	13	11	15 	   2.5	  275	
2018	04	22	13	10	45 	   4.9	  270	
2018	04	22	13	10	15 	   4.5	  262	
2018	04	22	13	09	45 	   5.8	  259	
2018	04	22	13	09	15 	   5.1	  263	
2018	04	22	13	08	45 	   4.5	  259	
2018	04	22	13	08	15 	   5.8	  259	
2018	04	22	13	07	45 	   5.4	  261	
2018	04	22	13	07	15 	   5.4	  265	
2018	04	22	13	06	45 	   4.3	  261	
2018	04	22	13	06	15 	   5.6	  263	
2018	04	22	13	05	45 	   5.4	  268	
2018	04	22	13	05	15 	   5.1	  263	
2018	04	22	13	04	45 	   4.5	  262	
2018	04	22	13	04	15 	   5.6	  268	
2018	04	22	13	03	45 	   4.5	  259	
2018	04	22	13	03	15 	   5.4	  265	
2018	04	22	13	02	45 	   5.1	  263	
2018	04	22	13	02	15 	   4.9	  265	
2018	04	22	13	01	45 	   5.8	  268	
2018	04	22	13	01	15 	   6.5	  264	
2018	04	22	13	00	45 	   5.8	  268	
2018	04	22	13	00	15 	   5.4	  265	
2018	04	22	12	59	45 	   4.9	  270	
2018	04	22	12	59	15 	   5.8	  270	
2018	04	22	12	58	45 	   5.6	  268	
2018	04	22	12	58	15 	   5.4	  258	
2018	04	22	12	57	45 	   6.0	  251	
2018	04	22	12	57	15 	   5.4	  263	
2018	04	22	12	56	45 	   5.8	  264	
2018	04	22	12	56	15 	   5.1	  265	
2018	04	22	12	55	45 	   5.6	  263	
2018	04	22	12	55	15 	   5.4	  258	
2018	04	22	12	54	45 	   6.0	  260	
2018	04	22	12	54	15 	   6.3	  258	
2018	04	22	12	53	45 	   5.4	  265	
2018	04	22	12	53	15 	   5.6	  263	
2018	04	22	12	52	45 	   4.9	  252	
2018	04	22	12	52	15 	   5.4	  261	
2018	04	22	12	51	45 	   5.8	  257	
2018	04	22	12	51	15 	   5.1	  270	
2018	04	22	12	50	45 	   5.8	  261	
2018	04	22	12	50	15 	   5.4	  265	
2018	04	22	12	49	45 	   5.6	  272	
2018	04	22	12	49	15 	   5.4	  265	
2018	04	22	12	48	45 	   5.8	  259	
2018	04	22	12	48	15 	   6.3	  270	
2018	04	22	12	47	45 	   5.6	  270	
2018	04	22	12	47	15 	   5.8	  266	
2018	04	22	12	46	45 	   5.8	  266	
2018	04	22	12	46	15 	   6.0	  266	
2018	04	22	12	45	45 	   6.5	  262	
2018	04	22	12	45	15 	   5.1	  265	
2018	04	22	12	44	45 	   5.1	  263	
2018	04	22	12	44	15 	   5.1	  270	
2018	04	22	12	43	45 	   5.8	  259	
2018	04	22	12	43	15 	   6.0	  268	
2018	04	22	12	42	45 	   5.6	  272	
2018	04	22	12	42	15 	   5.4	  268	
2018	04	22	12	41	45 	   5.4	  268	
2018	04	22	12	41	15 	   5.6	  268	
2018	04	22	12	40	45 	   5.1	  260	
2018	04	22	12	40	15 	   6.0	  260	
2018	04	22	12	39	45 	   5.8	  259	
2018	04	22	12	39	15 	   5.1	  270	
2018	04	22	12	38	45 	   4.9	  265	
2018	04	22	12	38	15 	   5.6	  263	
2018	04	22	12	37	45 	   6.5	  268	
2018	04	22	12	37	15 	   5.4	  261	
2018	04	22	12	36	45 	   4.9	  257	
2018	04	22	12	36	15 	   5.4	  268	
2018	04	22	12	35	45 	   5.8	  270	
2018	04	22	12	35	15 	   6.9	  272	
2018	04	22	12	34	45 	   6.3	  270	
2018	04	22	12	34	15 	   6.5	  264	
2018	04	22	12	33	45 	   6.0	  266	
2018	04	22	12	33	15 	   6.5	  264	
2018	04	22	12	32	45 	   5.8	  270	
2018	04	22	12	32	15 	   6.0	  264	
2018	04	22	12	31	45 	   6.5	  264	
2018	04	22	12	31	15 	   5.6	  261	
2018	04	22	12	30	45 	   6.9	  266	
2018	04	22	12	30	15 	   6.7	  270	
2018	04	22	12	29	45 	   7.4	  272	
2018	04	22	12	29	15 	   7.4	  265	
2018	04	22	12	28	45 	   7.4	  258	
2018	04	22	12	28	15 	   6.9	  268	
2018	04	22	12	27	45 	   6.7	  261	
2018	04	22	12	27	15 	   6.5	  262	
2018	04	22	12	26	45 	   6.0	  274	
2018	04	22	12	26	15 	   7.6	  253	
2018	04	22	12	25	45 	   6.5	  256	
2018	04	22	12	25	15 	   7.6	  257	
2018	04	22	12	24	45 	   7.6	  255	
2018	04	22	12	24	15 	   7.2	  250	
2018	04	22	12	23	45 	   7.6	  255	
2018	04	22	12	23	15 	   7.8	  257	
2018	04	22	12	22	45 	   8.1	  254	
2018	04	22	12	22	15 	   6.5	  258	
2018	04	22	12	21	45 	   9.4	  257	
2018	04	22	12	21	15 	   7.4	  262	
2018	04	22	12	20	45 	   7.6	  258	
2018	04	22	12	20	15 	   8.3	  253	
2018	04	22	12	19	45 	   7.6	  257	
2018	04	22	12	19	15 	   8.3	  254	
2018	04	22	12	18	45 	   6.7	  257	
2018	04	22	12	18	15 	   8.5	  253	
2018	04	22	12	17	45 	   8.5	  251	
2018	04	22	12	17	15 	   6.9	  261	
2018	04	22	12	16	45 	   7.8	  262	
2018	04	22	12	16	15 	   7.6	  245	
2018	04	22	12	15	45 	   8.7	  258	
2018	04	22	12	15	15 	   6.0	  262	
2018	04	22	12	14	45 	   8.5	  248	
2018	04	22	12	14	15 	   6.9	  246	
2018	04	22	12	13	45 	   6.9	  250	
2018	04	22	12	13	15 	   7.4	  256	
2018	04	22	12	12	45 	   8.1	  256	
2018	04	22	12	12	15 	   6.0	  243	
2018	04	22	12	11	45 	   7.2	  247	
2018	04	22	12	11	15 	   6.9	  255	
2018	04	22	12	10	45 	   8.1	  243	
2018	04	22	12	10	15 	   6.0	  234	


Time [Local Time: 24 hour], Temperatures [F], RH [%], Pressure [hPa], Visibility [feet], and Precipitation [Inches]

Max & min values for TT_2m and TT_10m, Tch_2m, RH, PP, and Visibility are over last hour

Max & min values for ground temperature Tg are over the last 24 hours

Meteorological wind direction dd [degrees], Wind Speed ff [mph]; winds are instantaneous values